<?xml version="1.0" encoding="UTF-8" standalone="no" ?>
<gpx xmlns="http://www.topografix.com/GPX/1/1" xmlns:xsi="http://www.w3.org/2001/XMLSchema-instance" xsi:schemaLocation="http://www.topografix.com/GPX/1/1 http://www.topografix.com/GPX/1/1/gpx.xsd" version="1.1" creator="VisuGPX - https://www.visugpx.com">
  <metadata>
    <name>Lac de Belledonne en boucle</name>
    <desc><![CDATA[Montée très sauvage par un petit sentier bien raide, pour éviter le sentier classique. 
Puis boucle par le GR et retour par un sentier taillé dans la montagne (ne pas avoir le vertige et avoir le pied sûr !)]]></desc>
  </metadata>
  <trk>
    <name><![CDATA[lac de belledone]]></name>
    <desc><![CDATA[<p>Heure de départ: 08/14/2018 09:38<br/>Heure d'arrivée: 08/14/2018 15:56<br/>Distance: 13,7 km (06:18)<br/>Temps déplacement: 04:32<br/>Vitesse moyenne: 2,17 km/h<br/>Vitesse moyenne mouv.: 3,02 km/h<br/>Vitesse Max.: 11,61 km/h<br/>Altitude minimale: 1272 m<br/>Altitude maximale: 2202 m<br/>Vitesse de montée: 391,2 m/h<br/>Vitesse de descente: -421,2 m/h<br/>Gain d'altitude: 1301 m<br/>Perte d'altitude: -1228 m<br/>Temps de montée: 03:19<br/>Temps de descente: 02:55<br/></p><hr align="center" width="480" style="height: 2px; width: 517px"/>]]></desc>
    <trkseg>
      <trkpt lat="45.14145" lon="6.0283">
        <ele>1272.8</ele>
        <time>2018-08-14T07:38:12Z</time>
      </trkpt>
      <trkpt lat="45.14164" lon="6.02823">
        <ele>1289.82</ele>
        <time>2018-08-14T07:39:28Z</time>
      </trkpt>
      <trkpt lat="45.14172" lon="6.028">
        <ele>1294.58</ele>
        <time>2018-08-14T07:40:04Z</time>
      </trkpt>
      <trkpt lat="45.14185" lon="6.02781">
        <ele>1308.93</ele>
        <time>2018-08-14T07:40:55Z</time>
      </trkpt>
      <trkpt lat="45.14201" lon="6.02766">
        <ele>1308.64</ele>
        <time>2018-08-14T07:41:18Z</time>
      </trkpt>
      <trkpt lat="45.14187" lon="6.0275">
        <ele>1310.78</ele>
        <time>2018-08-14T07:42:37Z</time>
      </trkpt>
      <trkpt lat="45.1417" lon="6.0274">
        <ele>1314.35</ele>
        <time>2018-08-14T07:43:47Z</time>
      </trkpt>
      <trkpt lat="45.14152" lon="6.02745">
        <ele>1313.54</ele>
        <time>2018-08-14T07:44:26Z</time>
      </trkpt>
      <trkpt lat="45.14133" lon="6.02746">
        <ele>1313.98</ele>
        <time>2018-08-14T07:44:51Z</time>
      </trkpt>
      <trkpt lat="45.1412" lon="6.02726">
        <ele>1316.95</ele>
        <time>2018-08-14T07:45:29Z</time>
      </trkpt>
      <trkpt lat="45.14107" lon="6.02708">
        <ele>1311.92</ele>
        <time>2018-08-14T07:46:09Z</time>
      </trkpt>
      <trkpt lat="45.1409" lon="6.02697">
        <ele>1303.45</ele>
        <time>2018-08-14T07:46:44Z</time>
      </trkpt>
      <trkpt lat="45.14108" lon="6.02688">
        <ele>1315.98</ele>
        <time>2018-08-14T07:47:39Z</time>
      </trkpt>
      <trkpt lat="45.14125" lon="6.02681">
        <ele>1345.71</ele>
        <time>2018-08-14T07:48:33Z</time>
      </trkpt>
      <trkpt lat="45.14141" lon="6.02667">
        <ele>1365.34</ele>
        <time>2018-08-14T07:49:17Z</time>
      </trkpt>
      <trkpt lat="45.14153" lon="6.02647">
        <ele>1368.69</ele>
        <time>2018-08-14T07:49:38Z</time>
      </trkpt>
      <trkpt lat="45.14139" lon="6.02665">
        <ele>1369.43</ele>
        <time>2018-08-14T07:51:01Z</time>
      </trkpt>
      <trkpt lat="45.1412" lon="6.02656">
        <ele>1366.57</ele>
        <time>2018-08-14T07:51:35Z</time>
      </trkpt>
      <trkpt lat="45.14104" lon="6.02644">
        <ele>1365.03</ele>
        <time>2018-08-14T07:52:23Z</time>
      </trkpt>
      <trkpt lat="45.14091" lon="6.02624">
        <ele>1371</ele>
        <time>2018-08-14T07:52:52Z</time>
      </trkpt>
      <trkpt lat="45.1408" lon="6.02604">
        <ele>1380.72</ele>
        <time>2018-08-14T07:53:30Z</time>
      </trkpt>
      <trkpt lat="45.14084" lon="6.02579">
        <ele>1391.19</ele>
        <time>2018-08-14T07:54:59Z</time>
      </trkpt>
      <trkpt lat="45.14103" lon="6.02576">
        <ele>1399.21</ele>
        <time>2018-08-14T07:55:35Z</time>
      </trkpt>
      <trkpt lat="45.14109" lon="6.02552">
        <ele>1412.31</ele>
        <time>2018-08-14T07:56:26Z</time>
      </trkpt>
      <trkpt lat="45.141" lon="6.02529">
        <ele>1416.64</ele>
        <time>2018-08-14T07:56:58Z</time>
      </trkpt>
      <trkpt lat="45.14087" lon="6.02511">
        <ele>1417.21</ele>
        <time>2018-08-14T07:57:23Z</time>
      </trkpt>
      <trkpt lat="45.14073" lon="6.02493">
        <ele>1423.05</ele>
        <time>2018-08-14T07:58:19Z</time>
      </trkpt>
      <trkpt lat="45.14066" lon="6.02469">
        <ele>1427.38</ele>
        <time>2018-08-14T07:58:42Z</time>
      </trkpt>
      <trkpt lat="45.14059" lon="6.02443">
        <ele>1424.87</ele>
        <time>2018-08-14T07:59:07Z</time>
      </trkpt>
      <trkpt lat="45.14044" lon="6.02424">
        <ele>1424.86</ele>
        <time>2018-08-14T07:59:51Z</time>
      </trkpt>
      <trkpt lat="45.14062" lon="6.02429">
        <ele>1430.92</ele>
        <time>2018-08-14T08:00:44Z</time>
      </trkpt>
      <trkpt lat="45.14081" lon="6.02433">
        <ele>1437.34</ele>
        <time>2018-08-14T08:01:16Z</time>
      </trkpt>
      <trkpt lat="45.14099" lon="6.02426">
        <ele>1448.14</ele>
        <time>2018-08-14T08:01:54Z</time>
      </trkpt>
      <trkpt lat="45.14117" lon="6.02426">
        <ele>1453.46</ele>
        <time>2018-08-14T08:02:18Z</time>
      </trkpt>
      <trkpt lat="45.14131" lon="6.0241">
        <ele>1458.09</ele>
        <time>2018-08-14T08:02:43Z</time>
      </trkpt>
      <trkpt lat="45.14125" lon="6.02386">
        <ele>1461.04</ele>
        <time>2018-08-14T08:03:21Z</time>
      </trkpt>
      <trkpt lat="45.14139" lon="6.0237">
        <ele>1466.45</ele>
        <time>2018-08-14T08:04:07Z</time>
      </trkpt>
      <trkpt lat="45.14154" lon="6.02354">
        <ele>1481.27</ele>
        <time>2018-08-14T08:05:01Z</time>
      </trkpt>
      <trkpt lat="45.14165" lon="6.02334">
        <ele>1487.37</ele>
        <time>2018-08-14T08:05:32Z</time>
      </trkpt>
      <trkpt lat="45.14153" lon="6.02315">
        <ele>1493.37</ele>
        <time>2018-08-14T08:06:04Z</time>
      </trkpt>
      <trkpt lat="45.14138" lon="6.02299">
        <ele>1498.72</ele>
        <time>2018-08-14T08:06:40Z</time>
      </trkpt>
      <trkpt lat="45.1412" lon="6.02289">
        <ele>1503.43</ele>
        <time>2018-08-14T08:07:15Z</time>
      </trkpt>
      <trkpt lat="45.14115" lon="6.02265">
        <ele>1509.38</ele>
        <time>2018-08-14T08:08:07Z</time>
      </trkpt>
      <trkpt lat="45.141" lon="6.0225">
        <ele>1512.34</ele>
        <time>2018-08-14T08:08:26Z</time>
      </trkpt>
      <trkpt lat="45.14088" lon="6.02231">
        <ele>1511.78</ele>
        <time>2018-08-14T08:09:24Z</time>
      </trkpt>
      <trkpt lat="45.14087" lon="6.02205">
        <ele>1520.47</ele>
        <time>2018-08-14T08:10:21Z</time>
      </trkpt>
      <trkpt lat="45.14083" lon="6.02179">
        <ele>1529.93</ele>
        <time>2018-08-14T08:11:21Z</time>
      </trkpt>
      <trkpt lat="45.14083" lon="6.02153">
        <ele>1531.89</ele>
        <time>2018-08-14T08:12:05Z</time>
      </trkpt>
      <trkpt lat="45.14101" lon="6.02147">
        <ele>1542.14</ele>
        <time>2018-08-14T08:13:12Z</time>
      </trkpt>
      <trkpt lat="45.14116" lon="6.02163">
        <ele>1548.46</ele>
        <time>2018-08-14T08:13:53Z</time>
      </trkpt>
      <trkpt lat="45.14134" lon="6.02159">
        <ele>1554.7</ele>
        <time>2018-08-14T08:14:37Z</time>
      </trkpt>
      <trkpt lat="45.14154" lon="6.02168">
        <ele>1558.6</ele>
        <time>2018-08-14T08:15:09Z</time>
      </trkpt>
      <trkpt lat="45.14169" lon="6.02152">
        <ele>1565.07</ele>
        <time>2018-08-14T08:15:52Z</time>
      </trkpt>
      <trkpt lat="45.14169" lon="6.02126">
        <ele>1570.38</ele>
        <time>2018-08-14T08:16:38Z</time>
      </trkpt>
      <trkpt lat="45.14158" lon="6.02103">
        <ele>1582.66</ele>
        <time>2018-08-14T08:17:53Z</time>
      </trkpt>
      <trkpt lat="45.14168" lon="6.02081">
        <ele>1586.46</ele>
        <time>2018-08-14T08:18:59Z</time>
      </trkpt>
      <trkpt lat="45.14156" lon="6.02062">
        <ele>1587.09</ele>
        <time>2018-08-14T08:19:30Z</time>
      </trkpt>
      <trkpt lat="45.14152" lon="6.02036">
        <ele>1593.91</ele>
        <time>2018-08-14T08:20:14Z</time>
      </trkpt>
      <trkpt lat="45.14142" lon="6.02015">
        <ele>1601.87</ele>
        <time>2018-08-14T08:20:46Z</time>
      </trkpt>
      <trkpt lat="45.14135" lon="6.01987">
        <ele>1609.97</ele>
        <time>2018-08-14T08:21:30Z</time>
      </trkpt>
      <trkpt lat="45.14132" lon="6.01962">
        <ele>1611.93</ele>
        <time>2018-08-14T08:22:22Z</time>
      </trkpt>
      <trkpt lat="45.14131" lon="6.01936">
        <ele>1619.88</ele>
        <time>2018-08-14T08:23:45Z</time>
      </trkpt>
      <trkpt lat="45.14129" lon="6.01911">
        <ele>1633.75</ele>
        <time>2018-08-14T08:24:37Z</time>
      </trkpt>
      <trkpt lat="45.1412" lon="6.01888">
        <ele>1655.29</ele>
        <time>2018-08-14T08:26:21Z</time>
      </trkpt>
      <trkpt lat="45.14114" lon="6.01863">
        <ele>1660.52</ele>
        <time>2018-08-14T08:27:12Z</time>
      </trkpt>
      <trkpt lat="45.14111" lon="6.01837">
        <ele>1667.59</ele>
        <time>2018-08-14T08:28:04Z</time>
      </trkpt>
      <trkpt lat="45.14106" lon="6.01812">
        <ele>1669.49</ele>
        <time>2018-08-14T08:28:42Z</time>
      </trkpt>
      <trkpt lat="45.14107" lon="6.01786">
        <ele>1673.02</ele>
        <time>2018-08-14T08:29:38Z</time>
      </trkpt>
      <trkpt lat="45.14109" lon="6.0176">
        <ele>1683.38</ele>
        <time>2018-08-14T08:30:41Z</time>
      </trkpt>
      <trkpt lat="45.14112" lon="6.01735">
        <ele>1687.32</ele>
        <time>2018-08-14T08:31:29Z</time>
      </trkpt>
      <trkpt lat="45.1413" lon="6.01727">
        <ele>1697.46</ele>
        <time>2018-08-14T08:33:12Z</time>
      </trkpt>
      <trkpt lat="45.14138" lon="6.01702">
        <ele>1702.91</ele>
        <time>2018-08-14T08:34:00Z</time>
      </trkpt>
      <trkpt lat="45.14157" lon="6.01696">
        <ele>1728.17</ele>
        <time>2018-08-14T08:36:32Z</time>
      </trkpt>
      <trkpt lat="45.14167" lon="6.01674">
        <ele>1737.22</ele>
        <time>2018-08-14T08:37:45Z</time>
      </trkpt>
      <trkpt lat="45.14176" lon="6.01651">
        <ele>1749.01</ele>
        <time>2018-08-14T08:38:57Z</time>
      </trkpt>
      <trkpt lat="45.14185" lon="6.01672">
        <ele>1757.81</ele>
        <time>2018-08-14T08:40:07Z</time>
      </trkpt>
      <trkpt lat="45.14198" lon="6.01654">
        <ele>1766.84</ele>
        <time>2018-08-14T08:41:25Z</time>
      </trkpt>
      <trkpt lat="45.14213" lon="6.01668">
        <ele>1781.36</ele>
        <time>2018-08-14T08:43:07Z</time>
      </trkpt>
      <trkpt lat="45.14229" lon="6.01684">
        <ele>1787.7</ele>
        <time>2018-08-14T08:43:51Z</time>
      </trkpt>
      <trkpt lat="45.14238" lon="6.0166">
        <ele>1799.55</ele>
        <time>2018-08-14T08:45:05Z</time>
      </trkpt>
      <trkpt lat="45.14237" lon="6.01634">
        <ele>1804.44</ele>
        <time>2018-08-14T08:45:48Z</time>
      </trkpt>
      <trkpt lat="45.14254" lon="6.01643">
        <ele>1811.98</ele>
        <time>2018-08-14T08:47:15Z</time>
      </trkpt>
      <trkpt lat="45.14268" lon="6.01626">
        <ele>1843.16</ele>
        <time>2018-08-14T08:49:57Z</time>
      </trkpt>
      <trkpt lat="45.14284" lon="6.01613">
        <ele>1848.9</ele>
        <time>2018-08-14T08:50:47Z</time>
      </trkpt>
      <trkpt lat="45.14295" lon="6.01594">
        <ele>1860.7</ele>
        <time>2018-08-14T08:53:00Z</time>
      </trkpt>
      <trkpt lat="45.14312" lon="6.01605">
        <ele>1871.89</ele>
        <time>2018-08-14T08:57:11Z</time>
      </trkpt>
      <trkpt lat="45.14324" lon="6.01624">
        <ele>1874.08</ele>
        <time>2018-08-14T08:57:39Z</time>
      </trkpt>
      <trkpt lat="45.14342" lon="6.01627">
        <ele>1877.12</ele>
        <time>2018-08-14T08:58:02Z</time>
      </trkpt>
      <trkpt lat="45.14357" lon="6.01643">
        <ele>1879.43</ele>
        <time>2018-08-14T08:58:36Z</time>
      </trkpt>
      <trkpt lat="45.14376" lon="6.01644">
        <ele>1880.2</ele>
        <time>2018-08-14T08:59:03Z</time>
      </trkpt>
      <trkpt lat="45.14395" lon="6.01645">
        <ele>1881.7</ele>
        <time>2018-08-14T08:59:17Z</time>
      </trkpt>
      <trkpt lat="45.14413" lon="6.01652">
        <ele>1884.77</ele>
        <time>2018-08-14T08:59:42Z</time>
      </trkpt>
      <trkpt lat="45.1443" lon="6.01661">
        <ele>1889.81</ele>
        <time>2018-08-14T09:00:26Z</time>
      </trkpt>
      <trkpt lat="45.14447" lon="6.01648">
        <ele>1890.82</ele>
        <time>2018-08-14T09:00:49Z</time>
      </trkpt>
      <trkpt lat="45.14464" lon="6.01635">
        <ele>1889.99</ele>
        <time>2018-08-14T09:01:09Z</time>
      </trkpt>
      <trkpt lat="45.14483" lon="6.01634">
        <ele>1888.01</ele>
        <time>2018-08-14T09:01:33Z</time>
      </trkpt>
      <trkpt lat="45.14501" lon="6.01636">
        <ele>1887.75</ele>
        <time>2018-08-14T09:03:44Z</time>
      </trkpt>
      <trkpt lat="45.14519" lon="6.01632">
        <ele>1884.69</ele>
        <time>2018-08-14T09:04:06Z</time>
      </trkpt>
      <trkpt lat="45.14537" lon="6.01636">
        <ele>1883.47</ele>
        <time>2018-08-14T09:04:20Z</time>
      </trkpt>
      <trkpt lat="45.14549" lon="6.01655">
        <ele>1883.84</ele>
        <time>2018-08-14T09:04:57Z</time>
      </trkpt>
      <trkpt lat="45.14567" lon="6.01661">
        <ele>1889.26</ele>
        <time>2018-08-14T09:05:33Z</time>
      </trkpt>
      <trkpt lat="45.14585" lon="6.01664">
        <ele>1894.36</ele>
        <time>2018-08-14T09:05:58Z</time>
      </trkpt>
      <trkpt lat="45.14604" lon="6.01666">
        <ele>1898.83</ele>
        <time>2018-08-14T09:06:28Z</time>
      </trkpt>
      <trkpt lat="45.14622" lon="6.01673">
        <ele>1900.18</ele>
        <time>2018-08-14T09:06:59Z</time>
      </trkpt>
      <trkpt lat="45.1464" lon="6.01669">
        <ele>1900.48</ele>
        <time>2018-08-14T09:08:07Z</time>
      </trkpt>
      <trkpt lat="45.14659" lon="6.01665">
        <ele>1895.62</ele>
        <time>2018-08-14T09:08:33Z</time>
      </trkpt>
      <trkpt lat="45.14677" lon="6.0166">
        <ele>1888.22</ele>
        <time>2018-08-14T09:09:07Z</time>
      </trkpt>
      <trkpt lat="45.14695" lon="6.01662">
        <ele>1884.1</ele>
        <time>2018-08-14T09:09:27Z</time>
      </trkpt>
      <trkpt lat="45.14713" lon="6.01663">
        <ele>1881.13</ele>
        <time>2018-08-14T09:09:50Z</time>
      </trkpt>
      <trkpt lat="45.1473" lon="6.01675">
        <ele>1878.97</ele>
        <time>2018-08-14T09:10:20Z</time>
      </trkpt>
      <trkpt lat="45.1474" lon="6.01697">
        <ele>1877.35</ele>
        <time>2018-08-14T09:10:42Z</time>
      </trkpt>
      <trkpt lat="45.14748" lon="6.01721">
        <ele>1874.33</ele>
        <time>2018-08-14T09:11:02Z</time>
      </trkpt>
      <trkpt lat="45.14752" lon="6.01747">
        <ele>1872.44</ele>
        <time>2018-08-14T09:11:52Z</time>
      </trkpt>
      <trkpt lat="45.14756" lon="6.01772">
        <ele>1871.32</ele>
        <time>2018-08-14T09:12:26Z</time>
      </trkpt>
      <trkpt lat="45.14771" lon="6.01788">
        <ele>1867.39</ele>
        <time>2018-08-14T09:13:06Z</time>
      </trkpt>
      <trkpt lat="45.14787" lon="6.01802">
        <ele>1858.89</ele>
        <time>2018-08-14T09:13:54Z</time>
      </trkpt>
      <trkpt lat="45.14804" lon="6.0181">
        <ele>1855.26</ele>
        <time>2018-08-14T09:14:14Z</time>
      </trkpt>
      <trkpt lat="45.14822" lon="6.01812">
        <ele>1850</ele>
        <time>2018-08-14T09:15:06Z</time>
      </trkpt>
      <trkpt lat="45.14839" lon="6.01803">
        <ele>1834.97</ele>
        <time>2018-08-14T09:17:13Z</time>
      </trkpt>
      <trkpt lat="45.14857" lon="6.01803">
        <ele>1829.43</ele>
        <time>2018-08-14T09:17:32Z</time>
      </trkpt>
      <trkpt lat="45.14875" lon="6.018">
        <ele>1824.65</ele>
        <time>2018-08-14T09:17:57Z</time>
      </trkpt>
      <trkpt lat="45.14893" lon="6.01789">
        <ele>1822.76</ele>
        <time>2018-08-14T09:18:17Z</time>
      </trkpt>
      <trkpt lat="45.14912" lon="6.01785">
        <ele>1820.51</ele>
        <time>2018-08-14T09:18:42Z</time>
      </trkpt>
      <trkpt lat="45.14929" lon="6.01793">
        <ele>1819.78</ele>
        <time>2018-08-14T09:18:56Z</time>
      </trkpt>
      <trkpt lat="45.14945" lon="6.0181">
        <ele>1819.69</ele>
        <time>2018-08-14T09:19:11Z</time>
      </trkpt>
      <trkpt lat="45.14958" lon="6.01828">
        <ele>1820.96</ele>
        <time>2018-08-14T09:19:30Z</time>
      </trkpt>
      <trkpt lat="45.14974" lon="6.0184">
        <ele>1822.5</ele>
        <time>2018-08-14T09:19:50Z</time>
      </trkpt>
      <trkpt lat="45.1499" lon="6.01853">
        <ele>1823.56</ele>
        <time>2018-08-14T09:20:12Z</time>
      </trkpt>
      <trkpt lat="45.15009" lon="6.0186">
        <ele>1823.87</ele>
        <time>2018-08-14T09:20:30Z</time>
      </trkpt>
      <trkpt lat="45.15026" lon="6.01868">
        <ele>1822.03</ele>
        <time>2018-08-14T09:20:57Z</time>
      </trkpt>
      <trkpt lat="45.15042" lon="6.01884">
        <ele>1820.16</ele>
        <time>2018-08-14T09:21:15Z</time>
      </trkpt>
      <trkpt lat="45.15055" lon="6.01902">
        <ele>1820.53</ele>
        <time>2018-08-14T09:21:29Z</time>
      </trkpt>
      <trkpt lat="45.15069" lon="6.01921">
        <ele>1821.64</ele>
        <time>2018-08-14T09:21:50Z</time>
      </trkpt>
      <trkpt lat="45.15079" lon="6.01942">
        <ele>1822.09</ele>
        <time>2018-08-14T09:22:11Z</time>
      </trkpt>
      <trkpt lat="45.1509" lon="6.01962">
        <ele>1822.4</ele>
        <time>2018-08-14T09:22:31Z</time>
      </trkpt>
      <trkpt lat="45.15097" lon="6.01987">
        <ele>1822.43</ele>
        <time>2018-08-14T09:23:22Z</time>
      </trkpt>
      <trkpt lat="45.15112" lon="6.02002">
        <ele>1820.75</ele>
        <time>2018-08-14T09:23:46Z</time>
      </trkpt>
      <trkpt lat="45.15126" lon="6.0202">
        <ele>1818.73</ele>
        <time>2018-08-14T09:24:05Z</time>
      </trkpt>
      <trkpt lat="45.1514" lon="6.02036">
        <ele>1816.92</ele>
        <time>2018-08-14T09:25:36Z</time>
      </trkpt>
      <trkpt lat="45.15157" lon="6.02047">
        <ele>1815.92</ele>
        <time>2018-08-14T09:26:20Z</time>
      </trkpt>
      <trkpt lat="45.15166" lon="6.0207">
        <ele>1818.09</ele>
        <time>2018-08-14T09:26:56Z</time>
      </trkpt>
      <trkpt lat="45.15161" lon="6.02094">
        <ele>1819.83</ele>
        <time>2018-08-14T09:27:16Z</time>
      </trkpt>
      <trkpt lat="45.15165" lon="6.0212">
        <ele>1822.42</ele>
        <time>2018-08-14T09:27:39Z</time>
      </trkpt>
      <trkpt lat="45.15174" lon="6.02142">
        <ele>1825.46</ele>
        <time>2018-08-14T09:28:05Z</time>
      </trkpt>
      <trkpt lat="45.15187" lon="6.02162">
        <ele>1825.85</ele>
        <time>2018-08-14T09:28:39Z</time>
      </trkpt>
      <trkpt lat="45.1519" lon="6.02188">
        <ele>1826.6</ele>
        <time>2018-08-14T09:29:15Z</time>
      </trkpt>
      <trkpt lat="45.15194" lon="6.02213">
        <ele>1829.16</ele>
        <time>2018-08-14T09:29:48Z</time>
      </trkpt>
      <trkpt lat="45.15199" lon="6.02239">
        <ele>1832.52</ele>
        <time>2018-08-14T09:30:14Z</time>
      </trkpt>
      <trkpt lat="45.15205" lon="6.02264">
        <ele>1835.26</ele>
        <time>2018-08-14T09:30:35Z</time>
      </trkpt>
      <trkpt lat="45.15203" lon="6.02289">
        <ele>1836.47</ele>
        <time>2018-08-14T09:30:55Z</time>
      </trkpt>
      <trkpt lat="45.15212" lon="6.02312">
        <ele>1835.95</ele>
        <time>2018-08-14T09:31:21Z</time>
      </trkpt>
      <trkpt lat="45.15225" lon="6.0233">
        <ele>1833.56</ele>
        <time>2018-08-14T09:31:41Z</time>
      </trkpt>
      <trkpt lat="45.15237" lon="6.0235">
        <ele>1829.96</ele>
        <time>2018-08-14T09:32:04Z</time>
      </trkpt>
      <trkpt lat="45.15249" lon="6.02369">
        <ele>1826.29</ele>
        <time>2018-08-14T09:32:27Z</time>
      </trkpt>
      <trkpt lat="45.15263" lon="6.02386">
        <ele>1820.88</ele>
        <time>2018-08-14T09:32:52Z</time>
      </trkpt>
      <trkpt lat="45.15265" lon="6.02413">
        <ele>1817.32</ele>
        <time>2018-08-14T09:33:13Z</time>
      </trkpt>
      <trkpt lat="45.15256" lon="6.02437">
        <ele>1809.04</ele>
        <time>2018-08-14T09:34:03Z</time>
      </trkpt>
      <trkpt lat="45.15249" lon="6.02461">
        <ele>1798.68</ele>
        <time>2018-08-14T09:34:39Z</time>
      </trkpt>
      <trkpt lat="45.15245" lon="6.02486">
        <ele>1793.48</ele>
        <time>2018-08-14T09:35:02Z</time>
      </trkpt>
      <trkpt lat="45.15258" lon="6.02504">
        <ele>1782.96</ele>
        <time>2018-08-14T09:45:44Z</time>
      </trkpt>
      <trkpt lat="45.15276" lon="6.02498">
        <ele>1784.97</ele>
        <time>2018-08-14T09:46:16Z</time>
      </trkpt>
      <trkpt lat="45.15294" lon="6.02497">
        <ele>1786.63</ele>
        <time>2018-08-14T09:46:33Z</time>
      </trkpt>
      <trkpt lat="45.15313" lon="6.02494">
        <ele>1788.08</ele>
        <time>2018-08-14T09:46:51Z</time>
      </trkpt>
      <trkpt lat="45.15332" lon="6.0249">
        <ele>1789.81</ele>
        <time>2018-08-14T09:47:08Z</time>
      </trkpt>
      <trkpt lat="45.1535" lon="6.02485">
        <ele>1789.77</ele>
        <time>2018-08-14T09:47:26Z</time>
      </trkpt>
      <trkpt lat="45.15369" lon="6.02478">
        <ele>1790.71</ele>
        <time>2018-08-14T09:47:45Z</time>
      </trkpt>
      <trkpt lat="45.15387" lon="6.0247">
        <ele>1789.3</ele>
        <time>2018-08-14T09:48:04Z</time>
      </trkpt>
      <trkpt lat="45.15403" lon="6.02461">
        <ele>1788.12</ele>
        <time>2018-08-14T09:48:18Z</time>
      </trkpt>
      <trkpt lat="45.15416" lon="6.02442">
        <ele>1789.5</ele>
        <time>2018-08-14T09:48:35Z</time>
      </trkpt>
      <trkpt lat="45.15426" lon="6.0242">
        <ele>1793.31</ele>
        <time>2018-08-14T09:48:52Z</time>
      </trkpt>
      <trkpt lat="45.15441" lon="6.02401">
        <ele>1795.45</ele>
        <time>2018-08-14T09:49:18Z</time>
      </trkpt>
      <trkpt lat="45.15459" lon="6.02394">
        <ele>1796.17</ele>
        <time>2018-08-14T09:49:34Z</time>
      </trkpt>
      <trkpt lat="45.15478" lon="6.02385">
        <ele>1796.54</ele>
        <time>2018-08-14T09:49:45Z</time>
      </trkpt>
      <trkpt lat="45.15493" lon="6.02368">
        <ele>1798.17</ele>
        <time>2018-08-14T09:50:01Z</time>
      </trkpt>
      <trkpt lat="45.15509" lon="6.02357">
        <ele>1801.27</ele>
        <time>2018-08-14T09:50:23Z</time>
      </trkpt>
      <trkpt lat="45.15525" lon="6.02342">
        <ele>1803.98</ele>
        <time>2018-08-14T09:50:43Z</time>
      </trkpt>
      <trkpt lat="45.1554" lon="6.02323">
        <ele>1805.45</ele>
        <time>2018-08-14T09:50:59Z</time>
      </trkpt>
      <trkpt lat="45.1555" lon="6.02302">
        <ele>1806.93</ele>
        <time>2018-08-14T09:51:20Z</time>
      </trkpt>
      <trkpt lat="45.15566" lon="6.0229">
        <ele>1806.62</ele>
        <time>2018-08-14T09:51:34Z</time>
      </trkpt>
      <trkpt lat="45.15577" lon="6.02267">
        <ele>1806.4</ele>
        <time>2018-08-14T09:51:58Z</time>
      </trkpt>
      <trkpt lat="45.15591" lon="6.02248">
        <ele>1807.3</ele>
        <time>2018-08-14T09:52:17Z</time>
      </trkpt>
      <trkpt lat="45.156" lon="6.02225">
        <ele>1808.3</ele>
        <time>2018-08-14T09:52:37Z</time>
      </trkpt>
      <trkpt lat="45.15612" lon="6.02206">
        <ele>1808.93</ele>
        <time>2018-08-14T09:52:55Z</time>
      </trkpt>
      <trkpt lat="45.15626" lon="6.02188">
        <ele>1810.63</ele>
        <time>2018-08-14T09:53:14Z</time>
      </trkpt>
      <trkpt lat="45.15637" lon="6.02168">
        <ele>1812.44</ele>
        <time>2018-08-14T09:53:35Z</time>
      </trkpt>
      <trkpt lat="45.15656" lon="6.02159">
        <ele>1813.1</ele>
        <time>2018-08-14T09:53:53Z</time>
      </trkpt>
      <trkpt lat="45.15673" lon="6.0215">
        <ele>1813.81</ele>
        <time>2018-08-14T09:54:14Z</time>
      </trkpt>
      <trkpt lat="45.15689" lon="6.02135">
        <ele>1814.71</ele>
        <time>2018-08-14T09:54:33Z</time>
      </trkpt>
      <trkpt lat="45.15703" lon="6.0212">
        <ele>1816.79</ele>
        <time>2018-08-14T09:54:56Z</time>
      </trkpt>
      <trkpt lat="45.15716" lon="6.02101">
        <ele>1818.28</ele>
        <time>2018-08-14T09:55:18Z</time>
      </trkpt>
      <trkpt lat="45.15724" lon="6.02078">
        <ele>1819.41</ele>
        <time>2018-08-14T09:55:39Z</time>
      </trkpt>
      <trkpt lat="45.15738" lon="6.02059">
        <ele>1821.08</ele>
        <time>2018-08-14T09:56:01Z</time>
      </trkpt>
      <trkpt lat="45.15748" lon="6.02037">
        <ele>1822.48</ele>
        <time>2018-08-14T09:56:24Z</time>
      </trkpt>
      <trkpt lat="45.15756" lon="6.02015">
        <ele>1821.83</ele>
        <time>2018-08-14T09:56:44Z</time>
      </trkpt>
      <trkpt lat="45.1576" lon="6.0199">
        <ele>1820.7</ele>
        <time>2018-08-14T09:57:04Z</time>
      </trkpt>
      <trkpt lat="45.15773" lon="6.0197">
        <ele>1822.03</ele>
        <time>2018-08-14T09:57:46Z</time>
      </trkpt>
      <trkpt lat="45.15788" lon="6.01957">
        <ele>1823.89</ele>
        <time>2018-08-14T09:58:03Z</time>
      </trkpt>
      <trkpt lat="45.15801" lon="6.01939">
        <ele>1825.48</ele>
        <time>2018-08-14T09:58:23Z</time>
      </trkpt>
      <trkpt lat="45.15819" lon="6.0193">
        <ele>1828.92</ele>
        <time>2018-08-14T09:58:44Z</time>
      </trkpt>
      <trkpt lat="45.15836" lon="6.01919">
        <ele>1834.41</ele>
        <time>2018-08-14T09:59:07Z</time>
      </trkpt>
      <trkpt lat="45.15848" lon="6.01899">
        <ele>1839.62</ele>
        <time>2018-08-14T09:59:31Z</time>
      </trkpt>
      <trkpt lat="45.15862" lon="6.01882">
        <ele>1844.15</ele>
        <time>2018-08-14T10:00:08Z</time>
      </trkpt>
      <trkpt lat="45.15879" lon="6.0187">
        <ele>1848.52</ele>
        <time>2018-08-14T10:00:33Z</time>
      </trkpt>
      <trkpt lat="45.15893" lon="6.01853">
        <ele>1854.41</ele>
        <time>2018-08-14T10:01:01Z</time>
      </trkpt>
      <trkpt lat="45.15912" lon="6.01849">
        <ele>1858.76</ele>
        <time>2018-08-14T10:01:28Z</time>
      </trkpt>
      <trkpt lat="45.1593" lon="6.0185">
        <ele>1860.84</ele>
        <time>2018-08-14T10:01:52Z</time>
      </trkpt>
      <trkpt lat="45.15947" lon="6.01842">
        <ele>1865.22</ele>
        <time>2018-08-14T10:02:28Z</time>
      </trkpt>
      <trkpt lat="45.15965" lon="6.01835">
        <ele>1869.46</ele>
        <time>2018-08-14T10:02:55Z</time>
      </trkpt>
      <trkpt lat="45.15983" lon="6.01829">
        <ele>1873.79</ele>
        <time>2018-08-14T10:03:25Z</time>
      </trkpt>
      <trkpt lat="45.15998" lon="6.01813">
        <ele>1876.71</ele>
        <time>2018-08-14T10:03:47Z</time>
      </trkpt>
      <trkpt lat="45.15995" lon="6.01786">
        <ele>1880.5</ele>
        <time>2018-08-14T10:04:14Z</time>
      </trkpt>
      <trkpt lat="45.15987" lon="6.01763">
        <ele>1882.53</ele>
        <time>2018-08-14T10:04:36Z</time>
      </trkpt>
      <trkpt lat="45.1598" lon="6.01739">
        <ele>1885.41</ele>
        <time>2018-08-14T10:04:57Z</time>
      </trkpt>
      <trkpt lat="45.15974" lon="6.01714">
        <ele>1889</ele>
        <time>2018-08-14T10:05:30Z</time>
      </trkpt>
      <trkpt lat="45.15989" lon="6.01698">
        <ele>1890.75</ele>
        <time>2018-08-14T10:05:56Z</time>
      </trkpt>
      <trkpt lat="45.16006" lon="6.01688">
        <ele>1895.51</ele>
        <time>2018-08-14T10:06:31Z</time>
      </trkpt>
      <trkpt lat="45.1602" lon="6.01671">
        <ele>1903.85</ele>
        <time>2018-08-14T10:07:14Z</time>
      </trkpt>
      <trkpt lat="45.16035" lon="6.01655">
        <ele>1908.4</ele>
        <time>2018-08-14T10:07:44Z</time>
      </trkpt>
      <trkpt lat="45.16051" lon="6.01643">
        <ele>1913.93</ele>
        <time>2018-08-14T10:08:06Z</time>
      </trkpt>
      <trkpt lat="45.16062" lon="6.01623">
        <ele>1926.46</ele>
        <time>2018-08-14T10:08:52Z</time>
      </trkpt>
      <trkpt lat="45.1605" lon="6.01604">
        <ele>1932.04</ele>
        <time>2018-08-14T10:09:21Z</time>
      </trkpt>
      <trkpt lat="45.16035" lon="6.01587">
        <ele>1936.62</ele>
        <time>2018-08-14T10:09:46Z</time>
      </trkpt>
      <trkpt lat="45.1602" lon="6.01572">
        <ele>1939.59</ele>
        <time>2018-08-14T10:10:14Z</time>
      </trkpt>
      <trkpt lat="45.16002" lon="6.01572">
        <ele>1946.58</ele>
        <time>2018-08-14T10:10:51Z</time>
      </trkpt>
      <trkpt lat="45.16" lon="6.01547">
        <ele>1950.26</ele>
        <time>2018-08-14T10:11:22Z</time>
      </trkpt>
      <trkpt lat="45.16014" lon="6.01529">
        <ele>1953.17</ele>
        <time>2018-08-14T10:11:47Z</time>
      </trkpt>
      <trkpt lat="45.16025" lon="6.01508">
        <ele>1958</ele>
        <time>2018-08-14T10:12:19Z</time>
      </trkpt>
      <trkpt lat="45.16042" lon="6.015">
        <ele>1962.28</ele>
        <time>2018-08-14T10:12:45Z</time>
      </trkpt>
      <trkpt lat="45.16032" lon="6.01478">
        <ele>1970.8</ele>
        <time>2018-08-14T10:13:41Z</time>
      </trkpt>
      <trkpt lat="45.16014" lon="6.01474">
        <ele>1974.63</ele>
        <time>2018-08-14T10:14:04Z</time>
      </trkpt>
      <trkpt lat="45.16025" lon="6.01453">
        <ele>1978.3</ele>
        <time>2018-08-14T10:14:33Z</time>
      </trkpt>
      <trkpt lat="45.16007" lon="6.01448">
        <ele>1983.6</ele>
        <time>2018-08-14T10:15:10Z</time>
      </trkpt>
      <trkpt lat="45.15988" lon="6.01445">
        <ele>1988.63</ele>
        <time>2018-08-14T10:15:37Z</time>
      </trkpt>
      <trkpt lat="45.15996" lon="6.01422">
        <ele>1996.44</ele>
        <time>2018-08-14T10:16:19Z</time>
      </trkpt>
      <trkpt lat="45.15982" lon="6.01405">
        <ele>2001.13</ele>
        <time>2018-08-14T10:16:54Z</time>
      </trkpt>
      <trkpt lat="45.15988" lon="6.01381">
        <ele>2008.22</ele>
        <time>2018-08-14T10:17:45Z</time>
      </trkpt>
      <trkpt lat="45.15995" lon="6.01357">
        <ele>2014.65</ele>
        <time>2018-08-14T10:18:25Z</time>
      </trkpt>
      <trkpt lat="45.15982" lon="6.01337">
        <ele>2017.55</ele>
        <time>2018-08-14T10:18:47Z</time>
      </trkpt>
      <trkpt lat="45.15984" lon="6.0131">
        <ele>2022.33</ele>
        <time>2018-08-14T10:19:18Z</time>
      </trkpt>
      <trkpt lat="45.15997" lon="6.01293">
        <ele>2025.81</ele>
        <time>2018-08-14T10:19:42Z</time>
      </trkpt>
      <trkpt lat="45.16012" lon="6.01278">
        <ele>2028.02</ele>
        <time>2018-08-14T10:20:12Z</time>
      </trkpt>
      <trkpt lat="45.16024" lon="6.01258">
        <ele>2037.38</ele>
        <time>2018-08-14T10:21:42Z</time>
      </trkpt>
      <trkpt lat="45.16017" lon="6.01233">
        <ele>2038.18</ele>
        <time>2018-08-14T10:23:23Z</time>
      </trkpt>
      <trkpt lat="45.16002" lon="6.01216">
        <ele>2039.22</ele>
        <time>2018-08-14T10:23:42Z</time>
      </trkpt>
      <trkpt lat="45.15995" lon="6.01192">
        <ele>2040.11</ele>
        <time>2018-08-14T10:24:05Z</time>
      </trkpt>
      <trkpt lat="45.1599" lon="6.01167">
        <ele>2039.52</ele>
        <time>2018-08-14T10:24:27Z</time>
      </trkpt>
      <trkpt lat="45.1599" lon="6.01141">
        <ele>2038.55</ele>
        <time>2018-08-14T10:24:48Z</time>
      </trkpt>
      <trkpt lat="45.15993" lon="6.01115">
        <ele>2036.57</ele>
        <time>2018-08-14T10:25:15Z</time>
      </trkpt>
      <trkpt lat="45.15988" lon="6.01089">
        <ele>2033.71</ele>
        <time>2018-08-14T10:25:40Z</time>
      </trkpt>
      <trkpt lat="45.15984" lon="6.01064">
        <ele>2032.16</ele>
        <time>2018-08-14T10:26:09Z</time>
      </trkpt>
      <trkpt lat="45.15979" lon="6.01039">
        <ele>2029.92</ele>
        <time>2018-08-14T10:26:35Z</time>
      </trkpt>
      <trkpt lat="45.15971" lon="6.01016">
        <ele>2028.64</ele>
        <time>2018-08-14T10:27:05Z</time>
      </trkpt>
      <trkpt lat="45.15958" lon="6.00997">
        <ele>2024.23</ele>
        <time>2018-08-14T10:27:39Z</time>
      </trkpt>
      <trkpt lat="45.15958" lon="6.0097">
        <ele>2024.52</ele>
        <time>2018-08-14T10:28:02Z</time>
      </trkpt>
      <trkpt lat="45.1596" lon="6.00944">
        <ele>2023.63</ele>
        <time>2018-08-14T10:28:19Z</time>
      </trkpt>
      <trkpt lat="45.15954" lon="6.0092">
        <ele>2022.99</ele>
        <time>2018-08-14T10:28:35Z</time>
      </trkpt>
      <trkpt lat="45.15943" lon="6.00899">
        <ele>2021.35</ele>
        <time>2018-08-14T10:28:50Z</time>
      </trkpt>
      <trkpt lat="45.15943" lon="6.00873">
        <ele>2021.21</ele>
        <time>2018-08-14T10:29:17Z</time>
      </trkpt>
      <trkpt lat="45.15948" lon="6.00848">
        <ele>2022.08</ele>
        <time>2018-08-14T10:29:47Z</time>
      </trkpt>
      <trkpt lat="45.15958" lon="6.00825">
        <ele>2022.38</ele>
        <time>2018-08-14T10:30:26Z</time>
      </trkpt>
      <trkpt lat="45.15971" lon="6.00805">
        <ele>2026.65</ele>
        <time>2018-08-14T10:31:07Z</time>
      </trkpt>
      <trkpt lat="45.15979" lon="6.00782">
        <ele>2027.88</ele>
        <time>2018-08-14T10:31:33Z</time>
      </trkpt>
      <trkpt lat="45.15988" lon="6.00759">
        <ele>2026.35</ele>
        <time>2018-08-14T10:32:02Z</time>
      </trkpt>
      <trkpt lat="45.15992" lon="6.00734">
        <ele>2025.84</ele>
        <time>2018-08-14T10:32:28Z</time>
      </trkpt>
      <trkpt lat="45.16002" lon="6.00712">
        <ele>2025.04</ele>
        <time>2018-08-14T10:32:54Z</time>
      </trkpt>
      <trkpt lat="45.16014" lon="6.0069">
        <ele>2025.52</ele>
        <time>2018-08-14T10:33:46Z</time>
      </trkpt>
      <trkpt lat="45.16032" lon="6.00683">
        <ele>2027.83</ele>
        <time>2018-08-14T10:34:16Z</time>
      </trkpt>
      <trkpt lat="45.16049" lon="6.00674">
        <ele>2031.74</ele>
        <time>2018-08-14T10:34:44Z</time>
      </trkpt>
      <trkpt lat="45.16064" lon="6.00659">
        <ele>2037.02</ele>
        <time>2018-08-14T10:35:18Z</time>
      </trkpt>
      <trkpt lat="45.16079" lon="6.00644">
        <ele>2039.8</ele>
        <time>2018-08-14T10:35:40Z</time>
      </trkpt>
      <trkpt lat="45.16092" lon="6.00626">
        <ele>2040.17</ele>
        <time>2018-08-14T10:36:00Z</time>
      </trkpt>
      <trkpt lat="45.16109" lon="6.00615">
        <ele>2038.43</ele>
        <time>2018-08-14T10:36:25Z</time>
      </trkpt>
      <trkpt lat="45.16127" lon="6.00612">
        <ele>2041.86</ele>
        <time>2018-08-14T10:36:52Z</time>
      </trkpt>
      <trkpt lat="45.16143" lon="6.00597">
        <ele>2044.31</ele>
        <time>2018-08-14T10:37:11Z</time>
      </trkpt>
      <trkpt lat="45.16156" lon="6.00579">
        <ele>2045.1</ele>
        <time>2018-08-14T10:37:31Z</time>
      </trkpt>
      <trkpt lat="45.16172" lon="6.00566">
        <ele>2045.89</ele>
        <time>2018-08-14T10:38:00Z</time>
      </trkpt>
      <trkpt lat="45.16183" lon="6.00545">
        <ele>2045.55</ele>
        <time>2018-08-14T10:38:19Z</time>
      </trkpt>
      <trkpt lat="45.1619" lon="6.00522">
        <ele>2042.96</ele>
        <time>2018-08-14T10:38:42Z</time>
      </trkpt>
      <trkpt lat="45.16208" lon="6.00526">
        <ele>2040.47</ele>
        <time>2018-08-14T10:39:11Z</time>
      </trkpt>
      <trkpt lat="45.16227" lon="6.00524">
        <ele>2038.79</ele>
        <time>2018-08-14T10:39:42Z</time>
      </trkpt>
      <trkpt lat="45.16232" lon="6.00497">
        <ele>2042.41</ele>
        <time>2018-08-14T10:40:06Z</time>
      </trkpt>
      <trkpt lat="45.16241" lon="6.00473">
        <ele>2045.2</ele>
        <time>2018-08-14T10:40:24Z</time>
      </trkpt>
      <trkpt lat="45.16258" lon="6.00459">
        <ele>2051.84</ele>
        <time>2018-08-14T10:41:32Z</time>
      </trkpt>
      <trkpt lat="45.16272" lon="6.00476">
        <ele>2055.56</ele>
        <time>2018-08-14T10:42:04Z</time>
      </trkpt>
      <trkpt lat="45.16283" lon="6.00452">
        <ele>2060.27</ele>
        <time>2018-08-14T10:42:34Z</time>
      </trkpt>
      <trkpt lat="45.16274" lon="6.00426">
        <ele>2066.19</ele>
        <time>2018-08-14T10:43:00Z</time>
      </trkpt>
      <trkpt lat="45.16272" lon="6.004">
        <ele>2075.59</ele>
        <time>2018-08-14T10:43:38Z</time>
      </trkpt>
      <trkpt lat="45.16267" lon="6.00375">
        <ele>2080.16</ele>
        <time>2018-08-14T10:44:16Z</time>
      </trkpt>
      <trkpt lat="45.16285" lon="6.00369">
        <ele>2088.41</ele>
        <time>2018-08-14T10:45:18Z</time>
      </trkpt>
      <trkpt lat="45.16298" lon="6.00352">
        <ele>2098.91</ele>
        <time>2018-08-14T10:46:18Z</time>
      </trkpt>
      <trkpt lat="45.16316" lon="6.00348">
        <ele>2109.73</ele>
        <time>2018-08-14T10:47:19Z</time>
      </trkpt>
      <trkpt lat="45.16313" lon="6.00321">
        <ele>2123.61</ele>
        <time>2018-08-14T10:48:20Z</time>
      </trkpt>
      <trkpt lat="45.16323" lon="6.00298">
        <ele>2132.93</ele>
        <time>2018-08-14T10:48:55Z</time>
      </trkpt>
      <trkpt lat="45.16325" lon="6.00271">
        <ele>2140.52</ele>
        <time>2018-08-14T10:49:27Z</time>
      </trkpt>
      <trkpt lat="45.16333" lon="6.00247">
        <ele>2148.65</ele>
        <time>2018-08-14T10:49:58Z</time>
      </trkpt>
      <trkpt lat="45.16343" lon="6.00225">
        <ele>2156.99</ele>
        <time>2018-08-14T10:50:25Z</time>
      </trkpt>
      <trkpt lat="45.16352" lon="6.00201">
        <ele>2160.76</ele>
        <time>2018-08-14T10:50:47Z</time>
      </trkpt>
      <trkpt lat="45.16362" lon="6.0018">
        <ele>2166.01</ele>
        <time>2018-08-14T10:51:14Z</time>
      </trkpt>
      <trkpt lat="45.1638" lon="6.00186">
        <ele>2165.97</ele>
        <time>2018-08-14T10:52:01Z</time>
      </trkpt>
      <trkpt lat="45.16395" lon="6.00169">
        <ele>2170.61</ele>
        <time>2018-08-14T10:52:52Z</time>
      </trkpt>
      <trkpt lat="45.164" lon="6.00144">
        <ele>2173.62</ele>
        <time>2018-08-14T10:53:21Z</time>
      </trkpt>
      <trkpt lat="45.16419" lon="6.00144">
        <ele>2176.5</ele>
        <time>2018-08-14T10:53:48Z</time>
      </trkpt>
      <trkpt lat="45.16433" lon="6.00126">
        <ele>2182.64</ele>
        <time>2018-08-14T10:54:12Z</time>
      </trkpt>
      <trkpt lat="45.16444" lon="6.00106">
        <ele>2191.98</ele>
        <time>2018-08-14T10:54:36Z</time>
      </trkpt>
      <trkpt lat="45.16452" lon="6.00082">
        <ele>2198.08</ele>
        <time>2018-08-14T10:54:57Z</time>
      </trkpt>
      <trkpt lat="45.16462" lon="6.00059">
        <ele>2202.83</ele>
        <time>2018-08-14T10:55:24Z</time>
      </trkpt>
      <trkpt lat="45.16465" lon="6.00033">
        <ele>2201.92</ele>
        <time>2018-08-14T10:56:40Z</time>
      </trkpt>
      <trkpt lat="45.16462" lon="6.00007">
        <ele>2196.67</ele>
        <time>2018-08-14T10:57:04Z</time>
      </trkpt>
      <trkpt lat="45.16466" lon="5.99981">
        <ele>2194.37</ele>
        <time>2018-08-14T10:57:27Z</time>
      </trkpt>
      <trkpt lat="45.16463" lon="5.99955">
        <ele>2191.77</ele>
        <time>2018-08-14T10:57:57Z</time>
      </trkpt>
      <trkpt lat="45.16466" lon="5.99916">
        <ele>2083.09</ele>
        <time>2018-08-14T11:25:55Z</time>
      </trkpt>
      <trkpt lat="45.16453" lon="5.9995">
        <ele>2161.49</ele>
        <time>2018-08-14T11:25:56Z</time>
      </trkpt>
      <trkpt lat="45.16465" lon="5.9997">
        <ele>2184.61</ele>
        <time>2018-08-14T11:26:16Z</time>
      </trkpt>
      <trkpt lat="45.16463" lon="5.99996">
        <ele>2187.57</ele>
        <time>2018-08-14T11:26:34Z</time>
      </trkpt>
      <trkpt lat="45.16463" lon="6.00024">
        <ele>2189.1</ele>
        <time>2018-08-14T11:27:19Z</time>
      </trkpt>
      <trkpt lat="45.1646" lon="6.00051">
        <ele>2190.36</ele>
        <time>2018-08-14T11:27:45Z</time>
      </trkpt>
      <trkpt lat="45.16454" lon="6.00075">
        <ele>2190.98</ele>
        <time>2018-08-14T11:28:08Z</time>
      </trkpt>
      <trkpt lat="45.16447" lon="6.00099">
        <ele>2183.04</ele>
        <time>2018-08-14T11:36:32Z</time>
      </trkpt>
      <trkpt lat="45.16436" lon="6.0012">
        <ele>2182.3</ele>
        <time>2018-08-14T11:36:50Z</time>
      </trkpt>
      <trkpt lat="45.16424" lon="6.00139">
        <ele>2180.8</ele>
        <time>2018-08-14T11:37:18Z</time>
      </trkpt>
      <trkpt lat="45.16406" lon="6.00145">
        <ele>2178.5</ele>
        <time>2018-08-14T11:37:37Z</time>
      </trkpt>
      <trkpt lat="45.16393" lon="6.00165">
        <ele>2173.35</ele>
        <time>2018-08-14T11:38:03Z</time>
      </trkpt>
      <trkpt lat="45.16393" lon="6.00192">
        <ele>2169.7</ele>
        <time>2018-08-14T11:38:27Z</time>
      </trkpt>
      <trkpt lat="45.16376" lon="6.00181">
        <ele>2164.13</ele>
        <time>2018-08-14T11:38:52Z</time>
      </trkpt>
      <trkpt lat="45.16359" lon="6.00173">
        <ele>2158.28</ele>
        <time>2018-08-14T11:39:10Z</time>
      </trkpt>
      <trkpt lat="45.16351" lon="6.00197">
        <ele>2153.97</ele>
        <time>2018-08-14T11:39:31Z</time>
      </trkpt>
      <trkpt lat="45.16342" lon="6.0022">
        <ele>2151.09</ele>
        <time>2018-08-14T11:39:49Z</time>
      </trkpt>
      <trkpt lat="45.16331" lon="6.00242">
        <ele>2148.35</ele>
        <time>2018-08-14T11:40:09Z</time>
      </trkpt>
      <trkpt lat="45.16323" lon="6.00265">
        <ele>2145.39</ele>
        <time>2018-08-14T11:40:28Z</time>
      </trkpt>
      <trkpt lat="45.16324" lon="6.00291">
        <ele>2141.45</ele>
        <time>2018-08-14T11:40:49Z</time>
      </trkpt>
      <trkpt lat="45.16314" lon="6.00312">
        <ele>2132.23</ele>
        <time>2018-08-14T11:42:54Z</time>
      </trkpt>
      <trkpt lat="45.16311" lon="6.00338">
        <ele>2124.79</ele>
        <time>2018-08-14T11:43:27Z</time>
      </trkpt>
      <trkpt lat="45.16312" lon="6.00364">
        <ele>2117.53</ele>
        <time>2018-08-14T11:44:04Z</time>
      </trkpt>
      <trkpt lat="45.16295" lon="6.00354">
        <ele>2109.48</ele>
        <time>2018-08-14T11:44:30Z</time>
      </trkpt>
      <trkpt lat="45.16277" lon="6.00361">
        <ele>2093.83</ele>
        <time>2018-08-14T11:45:23Z</time>
      </trkpt>
      <trkpt lat="45.16272" lon="6.00387">
        <ele>2083.97</ele>
        <time>2018-08-14T11:46:03Z</time>
      </trkpt>
      <trkpt lat="45.16275" lon="6.00413">
        <ele>2080.72</ele>
        <time>2018-08-14T11:46:23Z</time>
      </trkpt>
      <trkpt lat="45.16274" lon="6.00439">
        <ele>2075.64</ele>
        <time>2018-08-14T11:46:50Z</time>
      </trkpt>
      <trkpt lat="45.16276" lon="6.00465">
        <ele>2070.69</ele>
        <time>2018-08-14T11:47:06Z</time>
      </trkpt>
      <trkpt lat="45.16292" lon="6.00478">
        <ele>2062.05</ele>
        <time>2018-08-14T11:48:24Z</time>
      </trkpt>
      <trkpt lat="45.16273" lon="6.00477">
        <ele>2058.1</ele>
        <time>2018-08-14T11:49:56Z</time>
      </trkpt>
      <trkpt lat="45.16259" lon="6.00459">
        <ele>2054.56</ele>
        <time>2018-08-14T11:50:12Z</time>
      </trkpt>
      <trkpt lat="45.16243" lon="6.00471">
        <ele>2046.71</ele>
        <time>2018-08-14T11:50:51Z</time>
      </trkpt>
      <trkpt lat="45.16234" lon="6.00494">
        <ele>2044.56</ele>
        <time>2018-08-14T11:51:11Z</time>
      </trkpt>
      <trkpt lat="45.16232" lon="6.0052">
        <ele>2041.08</ele>
        <time>2018-08-14T11:51:41Z</time>
      </trkpt>
      <trkpt lat="45.16225" lon="6.00546">
        <ele>2036.38</ele>
        <time>2018-08-14T11:52:06Z</time>
      </trkpt>
      <trkpt lat="45.16219" lon="6.00571">
        <ele>2032.53</ele>
        <time>2018-08-14T11:52:25Z</time>
      </trkpt>
      <trkpt lat="45.16227" lon="6.00596">
        <ele>2025.6</ele>
        <time>2018-08-14T11:53:26Z</time>
      </trkpt>
      <trkpt lat="45.1624" lon="6.00614">
        <ele>2020.69</ele>
        <time>2018-08-14T11:53:50Z</time>
      </trkpt>
      <trkpt lat="45.16255" lon="6.0063">
        <ele>2018.22</ele>
        <time>2018-08-14T11:54:05Z</time>
      </trkpt>
      <trkpt lat="45.16272" lon="6.0064">
        <ele>2015.93</ele>
        <time>2018-08-14T11:54:26Z</time>
      </trkpt>
      <trkpt lat="45.16291" lon="6.00639">
        <ele>2015.25</ele>
        <time>2018-08-14T11:54:58Z</time>
      </trkpt>
      <trkpt lat="45.16309" lon="6.00644">
        <ele>2011.35</ele>
        <time>2018-08-14T11:56:15Z</time>
      </trkpt>
      <trkpt lat="45.16326" lon="6.00655">
        <ele>2009.76</ele>
        <time>2018-08-14T11:56:32Z</time>
      </trkpt>
      <trkpt lat="45.16343" lon="6.00665">
        <ele>2008.47</ele>
        <time>2018-08-14T11:56:52Z</time>
      </trkpt>
      <trkpt lat="45.16361" lon="6.00673">
        <ele>2008.24</ele>
        <time>2018-08-14T11:57:12Z</time>
      </trkpt>
      <trkpt lat="45.16376" lon="6.00688">
        <ele>2008.7</ele>
        <time>2018-08-14T11:57:31Z</time>
      </trkpt>
      <trkpt lat="45.16391" lon="6.00706">
        <ele>2008.85</ele>
        <time>2018-08-14T11:57:46Z</time>
      </trkpt>
      <trkpt lat="45.16406" lon="6.00725">
        <ele>2010.15</ele>
        <time>2018-08-14T11:58:10Z</time>
      </trkpt>
      <trkpt lat="45.16424" lon="6.00722">
        <ele>2012.43</ele>
        <time>2018-08-14T11:58:32Z</time>
      </trkpt>
      <trkpt lat="45.16443" lon="6.00721">
        <ele>2012.77</ele>
        <time>2018-08-14T11:58:50Z</time>
      </trkpt>
      <trkpt lat="45.16461" lon="6.00726">
        <ele>2012.33</ele>
        <time>2018-08-14T11:59:10Z</time>
      </trkpt>
      <trkpt lat="45.1648" lon="6.00724">
        <ele>2012.84</ele>
        <time>2018-08-14T11:59:31Z</time>
      </trkpt>
      <trkpt lat="45.16498" lon="6.00721">
        <ele>2013.33</ele>
        <time>2018-08-14T11:59:55Z</time>
      </trkpt>
      <trkpt lat="45.16517" lon="6.00721">
        <ele>2012.54</ele>
        <time>2018-08-14T12:00:06Z</time>
      </trkpt>
      <trkpt lat="45.16535" lon="6.00723">
        <ele>2012.35</ele>
        <time>2018-08-14T12:00:19Z</time>
      </trkpt>
      <trkpt lat="45.16553" lon="6.00724">
        <ele>2012.77</ele>
        <time>2018-08-14T12:00:32Z</time>
      </trkpt>
      <trkpt lat="45.16572" lon="6.00722">
        <ele>2015.16</ele>
        <time>2018-08-14T12:00:49Z</time>
      </trkpt>
      <trkpt lat="45.16591" lon="6.00721">
        <ele>2017.92</ele>
        <time>2018-08-14T12:01:07Z</time>
      </trkpt>
      <trkpt lat="45.16609" lon="6.00724">
        <ele>2020.54</ele>
        <time>2018-08-14T12:01:27Z</time>
      </trkpt>
      <trkpt lat="45.16626" lon="6.00735">
        <ele>2021.77</ele>
        <time>2018-08-14T12:02:14Z</time>
      </trkpt>
      <trkpt lat="45.16644" lon="6.00728">
        <ele>2022.66</ele>
        <time>2018-08-14T12:02:32Z</time>
      </trkpt>
      <trkpt lat="45.16662" lon="6.00728">
        <ele>2023.03</ele>
        <time>2018-08-14T12:02:48Z</time>
      </trkpt>
      <trkpt lat="45.16681" lon="6.00727">
        <ele>2024.11</ele>
        <time>2018-08-14T12:03:52Z</time>
      </trkpt>
      <trkpt lat="45.16698" lon="6.00737">
        <ele>2024.3</ele>
        <time>2018-08-14T12:04:26Z</time>
      </trkpt>
      <trkpt lat="45.16712" lon="6.00756">
        <ele>2024.03</ele>
        <time>2018-08-14T12:04:48Z</time>
      </trkpt>
      <trkpt lat="45.16729" lon="6.00767">
        <ele>2026.12</ele>
        <time>2018-08-14T12:05:08Z</time>
      </trkpt>
      <trkpt lat="45.16747" lon="6.00772">
        <ele>2026.22</ele>
        <time>2018-08-14T12:05:42Z</time>
      </trkpt>
      <trkpt lat="45.16759" lon="6.00792">
        <ele>2026.35</ele>
        <time>2018-08-14T12:06:06Z</time>
      </trkpt>
      <trkpt lat="45.16771" lon="6.00812">
        <ele>2026.81</ele>
        <time>2018-08-14T12:06:22Z</time>
      </trkpt>
      <trkpt lat="45.1678" lon="6.00835">
        <ele>2027.32</ele>
        <time>2018-08-14T12:06:41Z</time>
      </trkpt>
      <trkpt lat="45.16784" lon="6.00862">
        <ele>2027.69</ele>
        <time>2018-08-14T12:07:01Z</time>
      </trkpt>
      <trkpt lat="45.16791" lon="6.00886">
        <ele>2028.85</ele>
        <time>2018-08-14T12:07:24Z</time>
      </trkpt>
      <trkpt lat="45.16795" lon="6.00911">
        <ele>2029.58</ele>
        <time>2018-08-14T12:07:47Z</time>
      </trkpt>
      <trkpt lat="45.16805" lon="6.00935">
        <ele>2032.49</ele>
        <time>2018-08-14T12:08:19Z</time>
      </trkpt>
      <trkpt lat="45.16817" lon="6.00955">
        <ele>2036.06</ele>
        <time>2018-08-14T12:08:46Z</time>
      </trkpt>
      <trkpt lat="45.16836" lon="6.00956">
        <ele>2042.7</ele>
        <time>2018-08-14T12:09:47Z</time>
      </trkpt>
      <trkpt lat="45.16854" lon="6.00964">
        <ele>2042.59</ele>
        <time>2018-08-14T12:10:01Z</time>
      </trkpt>
      <trkpt lat="45.16872" lon="6.00969">
        <ele>2036.65</ele>
        <time>2018-08-14T12:10:35Z</time>
      </trkpt>
      <trkpt lat="45.1689" lon="6.00968">
        <ele>2032.52</ele>
        <time>2018-08-14T12:10:54Z</time>
      </trkpt>
      <trkpt lat="45.16908" lon="6.00975">
        <ele>2028.24</ele>
        <time>2018-08-14T12:11:14Z</time>
      </trkpt>
      <trkpt lat="45.16926" lon="6.00986">
        <ele>2024.49</ele>
        <time>2018-08-14T12:11:36Z</time>
      </trkpt>
      <trkpt lat="45.16943" lon="6.00997">
        <ele>2023.34</ele>
        <time>2018-08-14T12:11:50Z</time>
      </trkpt>
      <trkpt lat="45.16962" lon="6.01001">
        <ele>2024.58</ele>
        <time>2018-08-14T12:12:13Z</time>
      </trkpt>
      <trkpt lat="45.16979" lon="6.01007">
        <ele>2024.53</ele>
        <time>2018-08-14T12:12:33Z</time>
      </trkpt>
      <trkpt lat="45.16995" lon="6.01021">
        <ele>2022.08</ele>
        <time>2018-08-14T12:12:59Z</time>
      </trkpt>
      <trkpt lat="45.17014" lon="6.01026">
        <ele>2023.55</ele>
        <time>2018-08-14T12:13:26Z</time>
      </trkpt>
      <trkpt lat="45.17029" lon="6.01041">
        <ele>2024.84</ele>
        <time>2018-08-14T12:13:53Z</time>
      </trkpt>
      <trkpt lat="45.17044" lon="6.01059">
        <ele>2029.23</ele>
        <time>2018-08-14T12:14:39Z</time>
      </trkpt>
      <trkpt lat="45.17057" lon="6.01076">
        <ele>2030.73</ele>
        <time>2018-08-14T12:15:14Z</time>
      </trkpt>
      <trkpt lat="45.17072" lon="6.01093">
        <ele>2033.47</ele>
        <time>2018-08-14T12:15:42Z</time>
      </trkpt>
      <trkpt lat="45.17081" lon="6.01115">
        <ele>2037.12</ele>
        <time>2018-08-14T12:16:07Z</time>
      </trkpt>
      <trkpt lat="45.17092" lon="6.01136">
        <ele>2039.73</ele>
        <time>2018-08-14T12:16:32Z</time>
      </trkpt>
      <trkpt lat="45.171" lon="6.0116">
        <ele>2040.73</ele>
        <time>2018-08-14T12:17:01Z</time>
      </trkpt>
      <trkpt lat="45.17112" lon="6.01182">
        <ele>2044.08</ele>
        <time>2018-08-14T12:22:13Z</time>
      </trkpt>
      <trkpt lat="45.17123" lon="6.01203">
        <ele>2043.23</ele>
        <time>2018-08-14T12:22:39Z</time>
      </trkpt>
      <trkpt lat="45.17135" lon="6.01223">
        <ele>2041.56</ele>
        <time>2018-08-14T12:22:56Z</time>
      </trkpt>
      <trkpt lat="45.17138" lon="6.01249">
        <ele>2036.33</ele>
        <time>2018-08-14T12:23:36Z</time>
      </trkpt>
      <trkpt lat="45.17146" lon="6.01273">
        <ele>2030.06</ele>
        <time>2018-08-14T12:24:01Z</time>
      </trkpt>
      <trkpt lat="45.17157" lon="6.01295">
        <ele>2023.35</ele>
        <time>2018-08-14T12:24:26Z</time>
      </trkpt>
      <trkpt lat="45.17165" lon="6.01318">
        <ele>2018.16</ele>
        <time>2018-08-14T12:24:43Z</time>
      </trkpt>
      <trkpt lat="45.17163" lon="6.01343">
        <ele>2010.32</ele>
        <time>2018-08-14T12:25:14Z</time>
      </trkpt>
      <trkpt lat="45.17177" lon="6.0136">
        <ele>2003.19</ele>
        <time>2018-08-14T12:25:43Z</time>
      </trkpt>
      <trkpt lat="45.17184" lon="6.01384">
        <ele>1995.11</ele>
        <time>2018-08-14T12:26:11Z</time>
      </trkpt>
      <trkpt lat="45.1719" lon="6.01408">
        <ele>1987.01</ele>
        <time>2018-08-14T12:26:44Z</time>
      </trkpt>
      <trkpt lat="45.17198" lon="6.01432">
        <ele>1981.66</ele>
        <time>2018-08-14T12:27:05Z</time>
      </trkpt>
      <trkpt lat="45.17203" lon="6.01457">
        <ele>1976.14</ele>
        <time>2018-08-14T12:27:28Z</time>
      </trkpt>
      <trkpt lat="45.17206" lon="6.01482">
        <ele>1972.04</ele>
        <time>2018-08-14T12:27:48Z</time>
      </trkpt>
      <trkpt lat="45.17202" lon="6.01508">
        <ele>1965.23</ele>
        <time>2018-08-14T12:28:46Z</time>
      </trkpt>
      <trkpt lat="45.17203" lon="6.01535">
        <ele>1961.36</ele>
        <time>2018-08-14T12:29:13Z</time>
      </trkpt>
      <trkpt lat="45.17214" lon="6.01555">
        <ele>1955.8</ele>
        <time>2018-08-14T12:29:44Z</time>
      </trkpt>
      <trkpt lat="45.1722" lon="6.0158">
        <ele>1949.57</ele>
        <time>2018-08-14T12:30:07Z</time>
      </trkpt>
      <trkpt lat="45.17209" lon="6.01601">
        <ele>1946.97</ele>
        <time>2018-08-14T12:30:22Z</time>
      </trkpt>
      <trkpt lat="45.17201" lon="6.01627">
        <ele>1943.62</ele>
        <time>2018-08-14T12:30:41Z</time>
      </trkpt>
      <trkpt lat="45.17199" lon="6.01654">
        <ele>1937.39</ele>
        <time>2018-08-14T12:31:05Z</time>
      </trkpt>
      <trkpt lat="45.17201" lon="6.01679">
        <ele>1934.11</ele>
        <time>2018-08-14T12:31:19Z</time>
      </trkpt>
      <trkpt lat="45.17203" lon="6.01706">
        <ele>1930.75</ele>
        <time>2018-08-14T12:31:34Z</time>
      </trkpt>
      <trkpt lat="45.17202" lon="6.01732">
        <ele>1925.98</ele>
        <time>2018-08-14T12:31:49Z</time>
      </trkpt>
      <trkpt lat="45.17203" lon="6.01758">
        <ele>1920.71</ele>
        <time>2018-08-14T12:32:05Z</time>
      </trkpt>
      <trkpt lat="45.17216" lon="6.01777">
        <ele>1915.17</ele>
        <time>2018-08-14T12:32:27Z</time>
      </trkpt>
      <trkpt lat="45.17225" lon="6.018">
        <ele>1907.52</ele>
        <time>2018-08-14T12:32:59Z</time>
      </trkpt>
      <trkpt lat="45.1722" lon="6.01829">
        <ele>1902.79</ele>
        <time>2018-08-14T12:33:13Z</time>
      </trkpt>
      <trkpt lat="45.17208" lon="6.0185">
        <ele>1898.29</ele>
        <time>2018-08-14T12:33:30Z</time>
      </trkpt>
      <trkpt lat="45.17196" lon="6.0187">
        <ele>1891.66</ele>
        <time>2018-08-14T12:33:51Z</time>
      </trkpt>
      <trkpt lat="45.17183" lon="6.01888">
        <ele>1882.7</ele>
        <time>2018-08-14T12:34:19Z</time>
      </trkpt>
      <trkpt lat="45.17178" lon="6.01913">
        <ele>1876.66</ele>
        <time>2018-08-14T12:34:42Z</time>
      </trkpt>
      <trkpt lat="45.17171" lon="6.01938">
        <ele>1873.57</ele>
        <time>2018-08-14T12:34:54Z</time>
      </trkpt>
      <trkpt lat="45.17185" lon="6.01954">
        <ele>1867.11</ele>
        <time>2018-08-14T12:35:13Z</time>
      </trkpt>
      <trkpt lat="45.17201" lon="6.0197">
        <ele>1856.09</ele>
        <time>2018-08-14T12:35:46Z</time>
      </trkpt>
      <trkpt lat="45.17216" lon="6.01986">
        <ele>1846.85</ele>
        <time>2018-08-14T12:36:11Z</time>
      </trkpt>
      <trkpt lat="45.17226" lon="6.02009">
        <ele>1836.64</ele>
        <time>2018-08-14T12:36:39Z</time>
      </trkpt>
      <trkpt lat="45.17235" lon="6.02032">
        <ele>1828.64</ele>
        <time>2018-08-14T12:37:03Z</time>
      </trkpt>
      <trkpt lat="45.17227" lon="6.02055">
        <ele>1823.19</ele>
        <time>2018-08-14T12:37:39Z</time>
      </trkpt>
      <trkpt lat="45.17228" lon="6.0208">
        <ele>1817.08</ele>
        <time>2018-08-14T12:38:07Z</time>
      </trkpt>
      <trkpt lat="45.1724" lon="6.021">
        <ele>1813.15</ele>
        <time>2018-08-14T12:38:23Z</time>
      </trkpt>
      <trkpt lat="45.17248" lon="6.02122">
        <ele>1809.07</ele>
        <time>2018-08-14T12:38:41Z</time>
      </trkpt>
      <trkpt lat="45.17263" lon="6.02139">
        <ele>1802.32</ele>
        <time>2018-08-14T12:39:13Z</time>
      </trkpt>
      <trkpt lat="45.17281" lon="6.02132">
        <ele>1795.83</ele>
        <time>2018-08-14T12:39:37Z</time>
      </trkpt>
      <trkpt lat="45.17299" lon="6.02138">
        <ele>1780.35</ele>
        <time>2018-08-14T12:40:21Z</time>
      </trkpt>
      <trkpt lat="45.17311" lon="6.0216">
        <ele>1771.24</ele>
        <time>2018-08-14T12:40:40Z</time>
      </trkpt>
      <trkpt lat="45.17306" lon="6.02185">
        <ele>1765.55</ele>
        <time>2018-08-14T12:41:08Z</time>
      </trkpt>
      <trkpt lat="45.17295" lon="6.02205">
        <ele>1766.42</ele>
        <time>2018-08-14T12:41:34Z</time>
      </trkpt>
      <trkpt lat="45.1728" lon="6.02223">
        <ele>1766.48</ele>
        <time>2018-08-14T12:41:51Z</time>
      </trkpt>
      <trkpt lat="45.17264" lon="6.02234">
        <ele>1765.07</ele>
        <time>2018-08-14T12:42:03Z</time>
      </trkpt>
      <trkpt lat="45.1725" lon="6.0225">
        <ele>1760.92</ele>
        <time>2018-08-14T12:42:24Z</time>
      </trkpt>
      <trkpt lat="45.17235" lon="6.02268">
        <ele>1754.04</ele>
        <time>2018-08-14T12:42:46Z</time>
      </trkpt>
      <trkpt lat="45.17222" lon="6.02288">
        <ele>1750.44</ele>
        <time>2018-08-14T12:43:01Z</time>
      </trkpt>
      <trkpt lat="45.1724" lon="6.02286">
        <ele>1739.49</ele>
        <time>2018-08-14T12:43:27Z</time>
      </trkpt>
      <trkpt lat="45.17256" lon="6.02301">
        <ele>1731.71</ele>
        <time>2018-08-14T12:43:46Z</time>
      </trkpt>
      <trkpt lat="45.17274" lon="6.02305">
        <ele>1724.35</ele>
        <time>2018-08-14T12:44:11Z</time>
      </trkpt>
      <trkpt lat="45.17262" lon="6.02327">
        <ele>1714.27</ele>
        <time>2018-08-14T12:44:37Z</time>
      </trkpt>
      <trkpt lat="45.17247" lon="6.02343">
        <ele>1709.5</ele>
        <time>2018-08-14T12:44:52Z</time>
      </trkpt>
      <trkpt lat="45.17237" lon="6.02367">
        <ele>1699.29</ele>
        <time>2018-08-14T12:45:25Z</time>
      </trkpt>
      <trkpt lat="45.17247" lon="6.02388">
        <ele>1688.94</ele>
        <time>2018-08-14T12:45:53Z</time>
      </trkpt>
      <trkpt lat="45.17266" lon="6.02392">
        <ele>1684.85</ele>
        <time>2018-08-14T12:46:07Z</time>
      </trkpt>
      <trkpt lat="45.17284" lon="6.02388">
        <ele>1679.59</ele>
        <time>2018-08-14T12:46:31Z</time>
      </trkpt>
      <trkpt lat="45.17304" lon="6.02389">
        <ele>1675.12</ele>
        <time>2018-08-14T12:46:46Z</time>
      </trkpt>
      <trkpt lat="45.17322" lon="6.02397">
        <ele>1669.83</ele>
        <time>2018-08-14T12:47:01Z</time>
      </trkpt>
      <trkpt lat="45.17308" lon="6.02413">
        <ele>1660.72</ele>
        <time>2018-08-14T12:47:41Z</time>
      </trkpt>
      <trkpt lat="45.17296" lon="6.02438">
        <ele>1658.39</ele>
        <time>2018-08-14T12:47:54Z</time>
      </trkpt>
      <trkpt lat="45.17282" lon="6.02454">
        <ele>1652.47</ele>
        <time>2018-08-14T12:48:13Z</time>
      </trkpt>
      <trkpt lat="45.17264" lon="6.02466">
        <ele>1648.6</ele>
        <time>2018-08-14T12:48:25Z</time>
      </trkpt>
      <trkpt lat="45.17245" lon="6.02475">
        <ele>1643.3</ele>
        <time>2018-08-14T12:48:45Z</time>
      </trkpt>
      <trkpt lat="45.17227" lon="6.02479">
        <ele>1639.04</ele>
        <time>2018-08-14T12:49:15Z</time>
      </trkpt>
      <trkpt lat="45.17209" lon="6.02474">
        <ele>1632.29</ele>
        <time>2018-08-14T12:49:46Z</time>
      </trkpt>
      <trkpt lat="45.17193" lon="6.02488">
        <ele>1626.3</ele>
        <time>2018-08-14T12:49:57Z</time>
      </trkpt>
      <trkpt lat="45.17176" lon="6.02505">
        <ele>1613.91</ele>
        <time>2018-08-14T12:50:13Z</time>
      </trkpt>
      <trkpt lat="45.17172" lon="6.02531">
        <ele>1598.63</ele>
        <time>2018-08-14T12:50:43Z</time>
      </trkpt>
      <trkpt lat="45.17173" lon="6.02558">
        <ele>1592.61</ele>
        <time>2018-08-14T12:50:58Z</time>
      </trkpt>
      <trkpt lat="45.17184" lon="6.02578">
        <ele>1588.3</ele>
        <time>2018-08-14T12:51:18Z</time>
      </trkpt>
      <trkpt lat="45.17179" lon="6.02603">
        <ele>1586</ele>
        <time>2018-08-14T12:51:38Z</time>
      </trkpt>
      <trkpt lat="45.17171" lon="6.02627">
        <ele>1582.45</ele>
        <time>2018-08-14T12:51:49Z</time>
      </trkpt>
      <trkpt lat="45.17158" lon="6.02648">
        <ele>1578.53</ele>
        <time>2018-08-14T12:51:59Z</time>
      </trkpt>
      <trkpt lat="45.17142" lon="6.02659">
        <ele>1573.98</ele>
        <time>2018-08-14T12:52:24Z</time>
      </trkpt>
      <trkpt lat="45.17122" lon="6.02662">
        <ele>1571.72</ele>
        <time>2018-08-14T12:52:38Z</time>
      </trkpt>
      <trkpt lat="45.17104" lon="6.02668">
        <ele>1570.07</ele>
        <time>2018-08-14T12:52:54Z</time>
      </trkpt>
      <trkpt lat="45.17087" lon="6.02675">
        <ele>1568.48</ele>
        <time>2018-08-14T12:53:08Z</time>
      </trkpt>
      <trkpt lat="45.17069" lon="6.02683">
        <ele>1567.24</ele>
        <time>2018-08-14T12:53:23Z</time>
      </trkpt>
      <trkpt lat="45.17051" lon="6.02689">
        <ele>1565.42</ele>
        <time>2018-08-14T12:53:40Z</time>
      </trkpt>
      <trkpt lat="45.17046" lon="6.02715">
        <ele>1561.8</ele>
        <time>2018-08-14T12:54:03Z</time>
      </trkpt>
      <trkpt lat="45.17034" lon="6.02735">
        <ele>1558.53</ele>
        <time>2018-08-14T12:54:19Z</time>
      </trkpt>
      <trkpt lat="45.17018" lon="6.02749">
        <ele>1556.21</ele>
        <time>2018-08-14T12:54:34Z</time>
      </trkpt>
      <trkpt lat="45.17002" lon="6.02765">
        <ele>1555.05</ele>
        <time>2018-08-14T12:54:49Z</time>
      </trkpt>
      <trkpt lat="45.17016" lon="6.02783">
        <ele>1550.64</ele>
        <time>2018-08-14T12:55:14Z</time>
      </trkpt>
      <trkpt lat="45.17033" lon="6.02793">
        <ele>1547.57</ele>
        <time>2018-08-14T12:55:32Z</time>
      </trkpt>
      <trkpt lat="45.17051" lon="6.02798">
        <ele>1543.72</ele>
        <time>2018-08-14T12:55:52Z</time>
      </trkpt>
      <trkpt lat="45.17068" lon="6.02809">
        <ele>1539.2</ele>
        <time>2018-08-14T12:56:11Z</time>
      </trkpt>
      <trkpt lat="45.17084" lon="6.0282">
        <ele>1535.83</ele>
        <time>2018-08-14T12:56:28Z</time>
      </trkpt>
      <trkpt lat="45.17098" lon="6.02836">
        <ele>1509.94</ele>
        <time>2018-08-14T12:57:31Z</time>
      </trkpt>
      <trkpt lat="45.171" lon="6.02881">
        <ele>1502.93</ele>
        <time>2018-08-14T12:57:42Z</time>
      </trkpt>
      <trkpt lat="45.17099" lon="6.02911">
        <ele>1500.94</ele>
        <time>2018-08-14T12:57:47Z</time>
      </trkpt>
      <trkpt lat="45.17097" lon="6.02936">
        <ele>1497.24</ele>
        <time>2018-08-14T12:58:24Z</time>
      </trkpt>
      <trkpt lat="45.17083" lon="6.02955">
        <ele>1495.96</ele>
        <time>2018-08-14T12:58:45Z</time>
      </trkpt>
      <trkpt lat="45.17071" lon="6.02975">
        <ele>1494.57</ele>
        <time>2018-08-14T12:58:56Z</time>
      </trkpt>
      <trkpt lat="45.17055" lon="6.0299">
        <ele>1491</ele>
        <time>2018-08-14T12:59:09Z</time>
      </trkpt>
      <trkpt lat="45.17037" lon="6.02993">
        <ele>1489.37</ele>
        <time>2018-08-14T12:59:25Z</time>
      </trkpt>
      <trkpt lat="45.17029" lon="6.02969">
        <ele>1482.19</ele>
        <time>2018-08-14T13:00:59Z</time>
      </trkpt>
      <trkpt lat="45.17018" lon="6.02949">
        <ele>1483.25</ele>
        <time>2018-08-14T13:01:23Z</time>
      </trkpt>
      <trkpt lat="45.16999" lon="6.02943">
        <ele>1490.67</ele>
        <time>2018-08-14T13:01:54Z</time>
      </trkpt>
      <trkpt lat="45.16983" lon="6.02928">
        <ele>1493.36</ele>
        <time>2018-08-14T13:02:19Z</time>
      </trkpt>
      <trkpt lat="45.16975" lon="6.02903">
        <ele>1493.72</ele>
        <time>2018-08-14T13:02:36Z</time>
      </trkpt>
      <trkpt lat="45.16967" lon="6.02874">
        <ele>1495.58</ele>
        <time>2018-08-14T13:02:51Z</time>
      </trkpt>
      <trkpt lat="45.16961" lon="6.02848">
        <ele>1499.38</ele>
        <time>2018-08-14T13:03:10Z</time>
      </trkpt>
      <trkpt lat="45.16948" lon="6.02828">
        <ele>1502.33</ele>
        <time>2018-08-14T13:03:31Z</time>
      </trkpt>
      <trkpt lat="45.16936" lon="6.02809">
        <ele>1507.78</ele>
        <time>2018-08-14T13:03:57Z</time>
      </trkpt>
      <trkpt lat="45.16925" lon="6.02788">
        <ele>1509.42</ele>
        <time>2018-08-14T13:04:14Z</time>
      </trkpt>
      <trkpt lat="45.16915" lon="6.02765">
        <ele>1510.24</ele>
        <time>2018-08-14T13:04:28Z</time>
      </trkpt>
      <trkpt lat="45.1691" lon="6.0274">
        <ele>1510.32</ele>
        <time>2018-08-14T13:04:50Z</time>
      </trkpt>
      <trkpt lat="45.16904" lon="6.02716">
        <ele>1511.05</ele>
        <time>2018-08-14T13:05:09Z</time>
      </trkpt>
      <trkpt lat="45.16885" lon="6.02714">
        <ele>1505.27</ele>
        <time>2018-08-14T13:05:51Z</time>
      </trkpt>
      <trkpt lat="45.16875" lon="6.02692">
        <ele>1500.39</ele>
        <time>2018-08-14T13:06:33Z</time>
      </trkpt>
      <trkpt lat="45.16872" lon="6.02666">
        <ele>1497.35</ele>
        <time>2018-08-14T13:07:16Z</time>
      </trkpt>
      <trkpt lat="45.16874" lon="6.02639">
        <ele>1493.91</ele>
        <time>2018-08-14T13:07:45Z</time>
      </trkpt>
      <trkpt lat="45.16858" lon="6.02622">
        <ele>1491.18</ele>
        <time>2018-08-14T13:08:08Z</time>
      </trkpt>
      <trkpt lat="45.16853" lon="6.02597">
        <ele>1490.37</ele>
        <time>2018-08-14T13:08:26Z</time>
      </trkpt>
      <trkpt lat="45.16854" lon="6.02571">
        <ele>1490.21</ele>
        <time>2018-08-14T13:09:00Z</time>
      </trkpt>
      <trkpt lat="45.16853" lon="6.02545">
        <ele>1489.8</ele>
        <time>2018-08-14T13:10:15Z</time>
      </trkpt>
      <trkpt lat="45.16856" lon="6.0252">
        <ele>1496.99</ele>
        <time>2018-08-14T13:11:26Z</time>
      </trkpt>
      <trkpt lat="45.16854" lon="6.02492">
        <ele>1497.6</ele>
        <time>2018-08-14T13:11:47Z</time>
      </trkpt>
      <trkpt lat="45.16857" lon="6.02465">
        <ele>1494.71</ele>
        <time>2018-08-14T13:12:09Z</time>
      </trkpt>
      <trkpt lat="45.16856" lon="6.02439">
        <ele>1494.23</ele>
        <time>2018-08-14T13:12:26Z</time>
      </trkpt>
      <trkpt lat="45.16851" lon="6.02415">
        <ele>1495.03</ele>
        <time>2018-08-14T13:12:42Z</time>
      </trkpt>
      <trkpt lat="45.16848" lon="6.02389">
        <ele>1495.13</ele>
        <time>2018-08-14T13:13:00Z</time>
      </trkpt>
      <trkpt lat="45.16851" lon="6.02364">
        <ele>1492.93</ele>
        <time>2018-08-14T13:13:24Z</time>
      </trkpt>
      <trkpt lat="45.16847" lon="6.02339">
        <ele>1489.45</ele>
        <time>2018-08-14T13:13:46Z</time>
      </trkpt>
      <trkpt lat="45.1684" lon="6.02314">
        <ele>1487.71</ele>
        <time>2018-08-14T13:13:58Z</time>
      </trkpt>
      <trkpt lat="45.16825" lon="6.02298">
        <ele>1484.85</ele>
        <time>2018-08-14T13:14:18Z</time>
      </trkpt>
      <trkpt lat="45.16813" lon="6.02278">
        <ele>1482.8</ele>
        <time>2018-08-14T13:14:40Z</time>
      </trkpt>
      <trkpt lat="45.168" lon="6.02257">
        <ele>1479.13</ele>
        <time>2018-08-14T13:15:01Z</time>
      </trkpt>
      <trkpt lat="45.16783" lon="6.02251">
        <ele>1477.45</ele>
        <time>2018-08-14T13:15:27Z</time>
      </trkpt>
      <trkpt lat="45.16764" lon="6.02253">
        <ele>1468.03</ele>
        <time>2018-08-14T13:16:16Z</time>
      </trkpt>
      <trkpt lat="45.16748" lon="6.02242">
        <ele>1462.45</ele>
        <time>2018-08-14T13:16:36Z</time>
      </trkpt>
      <trkpt lat="45.1673" lon="6.02234">
        <ele>1457.67</ele>
        <time>2018-08-14T13:16:58Z</time>
      </trkpt>
      <trkpt lat="45.16713" lon="6.02226">
        <ele>1440.51</ele>
        <time>2018-08-14T13:17:50Z</time>
      </trkpt>
      <trkpt lat="45.16694" lon="6.02226">
        <ele>1424.8</ele>
        <time>2018-08-14T13:18:53Z</time>
      </trkpt>
      <trkpt lat="45.16681" lon="6.02245">
        <ele>1408.84</ele>
        <time>2018-08-14T13:19:45Z</time>
      </trkpt>
      <trkpt lat="45.16675" lon="6.02269">
        <ele>1399.58</ele>
        <time>2018-08-14T13:20:15Z</time>
      </trkpt>
      <trkpt lat="45.16672" lon="6.02295">
        <ele>1394.6</ele>
        <time>2018-08-14T13:20:32Z</time>
      </trkpt>
      <trkpt lat="45.16662" lon="6.02317">
        <ele>1389.85</ele>
        <time>2018-08-14T13:20:55Z</time>
      </trkpt>
      <trkpt lat="45.16672" lon="6.02344">
        <ele>1382.11</ele>
        <time>2018-08-14T13:21:38Z</time>
      </trkpt>
      <trkpt lat="45.16655" lon="6.02355">
        <ele>1378.62</ele>
        <time>2018-08-14T13:22:04Z</time>
      </trkpt>
      <trkpt lat="45.16641" lon="6.02372">
        <ele>1377.88</ele>
        <time>2018-08-14T13:22:18Z</time>
      </trkpt>
      <trkpt lat="45.16628" lon="6.0239">
        <ele>1378.86</ele>
        <time>2018-08-14T13:22:29Z</time>
      </trkpt>
      <trkpt lat="45.16622" lon="6.02414">
        <ele>1379.89</ele>
        <time>2018-08-14T13:22:49Z</time>
      </trkpt>
      <trkpt lat="45.16612" lon="6.02438">
        <ele>1380.87</ele>
        <time>2018-08-14T13:22:58Z</time>
      </trkpt>
      <trkpt lat="45.16595" lon="6.02449">
        <ele>1383.63</ele>
        <time>2018-08-14T13:23:20Z</time>
      </trkpt>
      <trkpt lat="45.16577" lon="6.02457">
        <ele>1387.82</ele>
        <time>2018-08-14T13:23:45Z</time>
      </trkpt>
      <trkpt lat="45.1656" lon="6.02464">
        <ele>1392.22</ele>
        <time>2018-08-14T13:24:08Z</time>
      </trkpt>
      <trkpt lat="45.16543" lon="6.02476">
        <ele>1394.85</ele>
        <time>2018-08-14T13:24:23Z</time>
      </trkpt>
      <trkpt lat="45.16529" lon="6.02492">
        <ele>1396.61</ele>
        <time>2018-08-14T13:24:46Z</time>
      </trkpt>
      <trkpt lat="45.16518" lon="6.02513">
        <ele>1395.53</ele>
        <time>2018-08-14T13:25:05Z</time>
      </trkpt>
      <trkpt lat="45.16504" lon="6.02529">
        <ele>1394.69</ele>
        <time>2018-08-14T13:25:29Z</time>
      </trkpt>
      <trkpt lat="45.16486" lon="6.02529">
        <ele>1397.67</ele>
        <time>2018-08-14T13:25:52Z</time>
      </trkpt>
      <trkpt lat="45.16468" lon="6.02537">
        <ele>1402.99</ele>
        <time>2018-08-14T13:26:14Z</time>
      </trkpt>
      <trkpt lat="45.16451" lon="6.02545">
        <ele>1404.91</ele>
        <time>2018-08-14T13:26:38Z</time>
      </trkpt>
      <trkpt lat="45.16435" lon="6.02558">
        <ele>1406.28</ele>
        <time>2018-08-14T13:26:56Z</time>
      </trkpt>
      <trkpt lat="45.16431" lon="6.02583">
        <ele>1405.78</ele>
        <time>2018-08-14T13:27:23Z</time>
      </trkpt>
      <trkpt lat="45.16421" lon="6.02606">
        <ele>1400.41</ele>
        <time>2018-08-14T13:27:57Z</time>
      </trkpt>
      <trkpt lat="45.16416" lon="6.0263">
        <ele>1396.56</ele>
        <time>2018-08-14T13:28:34Z</time>
      </trkpt>
      <trkpt lat="45.16405" lon="6.0265">
        <ele>1395.24</ele>
        <time>2018-08-14T13:28:56Z</time>
      </trkpt>
      <trkpt lat="45.16405" lon="6.02676">
        <ele>1394.87</ele>
        <time>2018-08-14T13:29:26Z</time>
      </trkpt>
      <trkpt lat="45.164" lon="6.02702">
        <ele>1397.63</ele>
        <time>2018-08-14T13:29:46Z</time>
      </trkpt>
      <trkpt lat="45.16395" lon="6.02728">
        <ele>1407.81</ele>
        <time>2018-08-14T13:31:47Z</time>
      </trkpt>
      <trkpt lat="45.16385" lon="6.0275">
        <ele>1409.52</ele>
        <time>2018-08-14T13:32:12Z</time>
      </trkpt>
      <trkpt lat="45.16367" lon="6.02762">
        <ele>1417.65</ele>
        <time>2018-08-14T13:32:58Z</time>
      </trkpt>
      <trkpt lat="45.16352" lon="6.02778">
        <ele>1424.47</ele>
        <time>2018-08-14T13:34:03Z</time>
      </trkpt>
      <trkpt lat="45.16336" lon="6.02792">
        <ele>1422.98</ele>
        <time>2018-08-14T13:34:29Z</time>
      </trkpt>
      <trkpt lat="45.16334" lon="6.02818">
        <ele>1424.91</ele>
        <time>2018-08-14T13:34:57Z</time>
      </trkpt>
      <trkpt lat="45.1632" lon="6.02839">
        <ele>1436.5</ele>
        <time>2018-08-14T13:35:53Z</time>
      </trkpt>
      <trkpt lat="45.16304" lon="6.02852">
        <ele>1443.13</ele>
        <time>2018-08-14T13:36:11Z</time>
      </trkpt>
      <trkpt lat="45.16302" lon="6.02878">
        <ele>1448.81</ele>
        <time>2018-08-14T13:36:40Z</time>
      </trkpt>
      <trkpt lat="45.16299" lon="6.02904">
        <ele>1447.11</ele>
        <time>2018-08-14T13:37:08Z</time>
      </trkpt>
      <trkpt lat="45.16288" lon="6.02925">
        <ele>1447.56</ele>
        <time>2018-08-14T13:37:30Z</time>
      </trkpt>
      <trkpt lat="45.16274" lon="6.02944">
        <ele>1450.04</ele>
        <time>2018-08-14T13:37:50Z</time>
      </trkpt>
      <trkpt lat="45.16261" lon="6.02963">
        <ele>1454.4</ele>
        <time>2018-08-14T13:38:07Z</time>
      </trkpt>
      <trkpt lat="45.16247" lon="6.0298">
        <ele>1457.22</ele>
        <time>2018-08-14T13:38:24Z</time>
      </trkpt>
      <trkpt lat="45.16227" lon="6.02985">
        <ele>1459.42</ele>
        <time>2018-08-14T13:38:39Z</time>
      </trkpt>
      <trkpt lat="45.16209" lon="6.02992">
        <ele>1464.45</ele>
        <time>2018-08-14T13:39:06Z</time>
      </trkpt>
      <trkpt lat="45.16196" lon="6.0301">
        <ele>1466.92</ele>
        <time>2018-08-14T13:39:40Z</time>
      </trkpt>
      <trkpt lat="45.16181" lon="6.03027">
        <ele>1465.97</ele>
        <time>2018-08-14T13:39:57Z</time>
      </trkpt>
      <trkpt lat="45.16169" lon="6.03047">
        <ele>1464.77</ele>
        <time>2018-08-14T13:40:13Z</time>
      </trkpt>
      <trkpt lat="45.16152" lon="6.03061">
        <ele>1464.15</ele>
        <time>2018-08-14T13:40:26Z</time>
      </trkpt>
      <trkpt lat="45.1614" lon="6.0308">
        <ele>1461.57</ele>
        <time>2018-08-14T13:40:41Z</time>
      </trkpt>
      <trkpt lat="45.16128" lon="6.03101">
        <ele>1457.52</ele>
        <time>2018-08-14T13:40:55Z</time>
      </trkpt>
      <trkpt lat="45.16115" lon="6.0312">
        <ele>1455.48</ele>
        <time>2018-08-14T13:41:06Z</time>
      </trkpt>
      <trkpt lat="45.16101" lon="6.03135">
        <ele>1454.28</ele>
        <time>2018-08-14T13:41:20Z</time>
      </trkpt>
      <trkpt lat="45.16085" lon="6.03152">
        <ele>1454.66</ele>
        <time>2018-08-14T13:41:36Z</time>
      </trkpt>
      <trkpt lat="45.16067" lon="6.03164">
        <ele>1453.79</ele>
        <time>2018-08-14T13:41:50Z</time>
      </trkpt>
      <trkpt lat="45.16049" lon="6.03168">
        <ele>1452.16</ele>
        <time>2018-08-14T13:42:07Z</time>
      </trkpt>
      <trkpt lat="45.16031" lon="6.03175">
        <ele>1450.12</ele>
        <time>2018-08-14T13:42:18Z</time>
      </trkpt>
      <trkpt lat="45.16014" lon="6.03182">
        <ele>1449.32</ele>
        <time>2018-08-14T13:42:28Z</time>
      </trkpt>
      <trkpt lat="45.15995" lon="6.0319">
        <ele>1446.65</ele>
        <time>2018-08-14T13:42:42Z</time>
      </trkpt>
      <trkpt lat="45.15978" lon="6.03202">
        <ele>1441.81</ele>
        <time>2018-08-14T13:42:58Z</time>
      </trkpt>
      <trkpt lat="45.1596" lon="6.03211">
        <ele>1440.22</ele>
        <time>2018-08-14T13:43:12Z</time>
      </trkpt>
      <trkpt lat="45.15942" lon="6.03211">
        <ele>1441.7</ele>
        <time>2018-08-14T13:43:26Z</time>
      </trkpt>
      <trkpt lat="45.15923" lon="6.03209">
        <ele>1444.33</ele>
        <time>2018-08-14T13:43:40Z</time>
      </trkpt>
      <trkpt lat="45.15905" lon="6.03207">
        <ele>1446.25</ele>
        <time>2018-08-14T13:43:53Z</time>
      </trkpt>
      <trkpt lat="45.15886" lon="6.03206">
        <ele>1448.08</ele>
        <time>2018-08-14T13:44:06Z</time>
      </trkpt>
      <trkpt lat="45.15867" lon="6.03203">
        <ele>1451.2</ele>
        <time>2018-08-14T13:44:19Z</time>
      </trkpt>
      <trkpt lat="45.15848" lon="6.03204">
        <ele>1454.29</ele>
        <time>2018-08-14T13:44:32Z</time>
      </trkpt>
      <trkpt lat="45.15832" lon="6.03219">
        <ele>1450.4</ele>
        <time>2018-08-14T13:44:51Z</time>
      </trkpt>
      <trkpt lat="45.15824" lon="6.03244">
        <ele>1444.59</ele>
        <time>2018-08-14T13:45:06Z</time>
      </trkpt>
      <trkpt lat="45.15812" lon="6.03264">
        <ele>1439.97</ele>
        <time>2018-08-14T13:45:21Z</time>
      </trkpt>
      <trkpt lat="45.15795" lon="6.03279">
        <ele>1436.25</ele>
        <time>2018-08-14T13:45:34Z</time>
      </trkpt>
      <trkpt lat="45.15777" lon="6.0329">
        <ele>1434.46</ele>
        <time>2018-08-14T13:45:47Z</time>
      </trkpt>
      <trkpt lat="45.15759" lon="6.03298">
        <ele>1434.99</ele>
        <time>2018-08-14T13:46:00Z</time>
      </trkpt>
      <trkpt lat="45.15741" lon="6.03306">
        <ele>1435.59</ele>
        <time>2018-08-14T13:46:13Z</time>
      </trkpt>
      <trkpt lat="45.15724" lon="6.03314">
        <ele>1435.81</ele>
        <time>2018-08-14T13:46:26Z</time>
      </trkpt>
      <trkpt lat="45.15706" lon="6.03326">
        <ele>1435.21</ele>
        <time>2018-08-14T13:46:40Z</time>
      </trkpt>
      <trkpt lat="45.1569" lon="6.03337">
        <ele>1435.04</ele>
        <time>2018-08-14T13:46:53Z</time>
      </trkpt>
      <trkpt lat="45.15672" lon="6.03343">
        <ele>1435.63</ele>
        <time>2018-08-14T13:47:10Z</time>
      </trkpt>
      <trkpt lat="45.15655" lon="6.03353">
        <ele>1436</ele>
        <time>2018-08-14T13:47:24Z</time>
      </trkpt>
      <trkpt lat="45.15637" lon="6.03362">
        <ele>1433.32</ele>
        <time>2018-08-14T13:47:41Z</time>
      </trkpt>
      <trkpt lat="45.15619" lon="6.0337">
        <ele>1430.38</ele>
        <time>2018-08-14T13:47:54Z</time>
      </trkpt>
      <trkpt lat="45.15601" lon="6.03376">
        <ele>1427.88</ele>
        <time>2018-08-14T13:48:07Z</time>
      </trkpt>
      <trkpt lat="45.15582" lon="6.03384">
        <ele>1426.11</ele>
        <time>2018-08-14T13:48:18Z</time>
      </trkpt>
      <trkpt lat="45.15565" lon="6.03393">
        <ele>1425.36</ele>
        <time>2018-08-14T13:48:33Z</time>
      </trkpt>
      <trkpt lat="45.15546" lon="6.03397">
        <ele>1425.8</ele>
        <time>2018-08-14T13:48:46Z</time>
      </trkpt>
      <trkpt lat="45.15527" lon="6.03401">
        <ele>1426.63</ele>
        <time>2018-08-14T13:49:01Z</time>
      </trkpt>
      <trkpt lat="45.1551" lon="6.03391">
        <ele>1421.27</ele>
        <time>2018-08-14T13:49:26Z</time>
      </trkpt>
      <trkpt lat="45.15493" lon="6.03381">
        <ele>1416.33</ele>
        <time>2018-08-14T13:49:38Z</time>
      </trkpt>
      <trkpt lat="45.15475" lon="6.03374">
        <ele>1413.31</ele>
        <time>2018-08-14T13:49:48Z</time>
      </trkpt>
      <trkpt lat="45.15457" lon="6.03375">
        <ele>1410.43</ele>
        <time>2018-08-14T13:50:01Z</time>
      </trkpt>
      <trkpt lat="45.15437" lon="6.0338">
        <ele>1409.75</ele>
        <time>2018-08-14T13:50:13Z</time>
      </trkpt>
      <trkpt lat="45.15419" lon="6.03385">
        <ele>1411.06</ele>
        <time>2018-08-14T13:50:28Z</time>
      </trkpt>
      <trkpt lat="45.15401" lon="6.03393">
        <ele>1411.64</ele>
        <time>2018-08-14T13:50:45Z</time>
      </trkpt>
      <trkpt lat="45.15383" lon="6.034">
        <ele>1410.94</ele>
        <time>2018-08-14T13:50:57Z</time>
      </trkpt>
      <trkpt lat="45.15364" lon="6.03393">
        <ele>1410.13</ele>
        <time>2018-08-14T13:51:08Z</time>
      </trkpt>
      <trkpt lat="45.1535" lon="6.03376">
        <ele>1408.5</ele>
        <time>2018-08-14T13:51:21Z</time>
      </trkpt>
      <trkpt lat="45.15332" lon="6.03369">
        <ele>1402.53</ele>
        <time>2018-08-14T13:51:42Z</time>
      </trkpt>
      <trkpt lat="45.15312" lon="6.03365">
        <ele>1400.89</ele>
        <time>2018-08-14T13:51:52Z</time>
      </trkpt>
      <trkpt lat="45.15295" lon="6.03375">
        <ele>1399.15</ele>
        <time>2018-08-14T13:52:07Z</time>
      </trkpt>
      <trkpt lat="45.1528" lon="6.03393">
        <ele>1397.93</ele>
        <time>2018-08-14T13:52:21Z</time>
      </trkpt>
      <trkpt lat="45.15271" lon="6.03415">
        <ele>1395.21</ele>
        <time>2018-08-14T13:52:37Z</time>
      </trkpt>
      <trkpt lat="45.15253" lon="6.0342">
        <ele>1392.8</ele>
        <time>2018-08-14T13:52:50Z</time>
      </trkpt>
      <trkpt lat="45.15234" lon="6.03425">
        <ele>1390.05</ele>
        <time>2018-08-14T13:53:04Z</time>
      </trkpt>
      <trkpt lat="45.15215" lon="6.03429">
        <ele>1388.07</ele>
        <time>2018-08-14T13:53:15Z</time>
      </trkpt>
      <trkpt lat="45.152" lon="6.03443">
        <ele>1386.56</ele>
        <time>2018-08-14T13:53:29Z</time>
      </trkpt>
      <trkpt lat="45.1519" lon="6.03465">
        <ele>1385.58</ele>
        <time>2018-08-14T13:53:44Z</time>
      </trkpt>
      <trkpt lat="45.15175" lon="6.03479">
        <ele>1384.63</ele>
        <time>2018-08-14T13:53:57Z</time>
      </trkpt>
      <trkpt lat="45.15157" lon="6.03478">
        <ele>1382.87</ele>
        <time>2018-08-14T13:54:10Z</time>
      </trkpt>
      <trkpt lat="45.15139" lon="6.03473">
        <ele>1379.02</ele>
        <time>2018-08-14T13:54:27Z</time>
      </trkpt>
      <trkpt lat="45.15121" lon="6.03472">
        <ele>1376.72</ele>
        <time>2018-08-14T13:54:43Z</time>
      </trkpt>
      <trkpt lat="45.15101" lon="6.03474">
        <ele>1376.1</ele>
        <time>2018-08-14T13:54:55Z</time>
      </trkpt>
      <trkpt lat="45.15082" lon="6.03474">
        <ele>1376.26</ele>
        <time>2018-08-14T13:55:10Z</time>
      </trkpt>
      <trkpt lat="45.15064" lon="6.03472">
        <ele>1375.78</ele>
        <time>2018-08-14T13:55:19Z</time>
      </trkpt>
      <trkpt lat="45.15047" lon="6.03477">
        <ele>1373.22</ele>
        <time>2018-08-14T13:55:37Z</time>
      </trkpt>
      <trkpt lat="45.15029" lon="6.03489">
        <ele>1369.64</ele>
        <time>2018-08-14T13:55:51Z</time>
      </trkpt>
      <trkpt lat="45.1501" lon="6.03495">
        <ele>1364.4</ele>
        <time>2018-08-14T13:56:07Z</time>
      </trkpt>
      <trkpt lat="45.14991" lon="6.03496">
        <ele>1357.48</ele>
        <time>2018-08-14T13:56:26Z</time>
      </trkpt>
      <trkpt lat="45.14973" lon="6.03499">
        <ele>1351.73</ele>
        <time>2018-08-14T13:56:43Z</time>
      </trkpt>
      <trkpt lat="45.14929" lon="6.03516">
        <ele>1368.31</ele>
        <time>2018-08-14T13:58:30Z</time>
      </trkpt>
      <trkpt lat="45.14912" lon="6.03524">
        <ele>1369.06</ele>
        <time>2018-08-14T13:58:46Z</time>
      </trkpt>
      <trkpt lat="45.14892" lon="6.03525">
        <ele>1369.62</ele>
        <time>2018-08-14T13:59:02Z</time>
      </trkpt>
      <trkpt lat="45.14873" lon="6.03525">
        <ele>1369.98</ele>
        <time>2018-08-14T13:59:15Z</time>
      </trkpt>
      <trkpt lat="45.14855" lon="6.03521">
        <ele>1370.38</ele>
        <time>2018-08-14T13:59:29Z</time>
      </trkpt>
      <trkpt lat="45.14837" lon="6.03526">
        <ele>1370.01</ele>
        <time>2018-08-14T13:59:44Z</time>
      </trkpt>
      <trkpt lat="45.14818" lon="6.0352">
        <ele>1368.68</ele>
        <time>2018-08-14T13:59:58Z</time>
      </trkpt>
      <trkpt lat="45.14799" lon="6.03515">
        <ele>1368.27</ele>
        <time>2018-08-14T14:00:12Z</time>
      </trkpt>
      <trkpt lat="45.1478" lon="6.03512">
        <ele>1365.23</ele>
        <time>2018-08-14T14:00:26Z</time>
      </trkpt>
      <trkpt lat="45.14761" lon="6.0351">
        <ele>1363.07</ele>
        <time>2018-08-14T14:00:38Z</time>
      </trkpt>
      <trkpt lat="45.14743" lon="6.03503">
        <ele>1361.27</ele>
        <time>2018-08-14T14:00:53Z</time>
      </trkpt>
      <trkpt lat="45.14725" lon="6.03499">
        <ele>1359.5</ele>
        <time>2018-08-14T14:01:06Z</time>
      </trkpt>
      <trkpt lat="45.14707" lon="6.03499">
        <ele>1358.49</ele>
        <time>2018-08-14T14:01:17Z</time>
      </trkpt>
      <trkpt lat="45.14689" lon="6.03497">
        <ele>1357</ele>
        <time>2018-08-14T14:01:37Z</time>
      </trkpt>
      <trkpt lat="45.1467" lon="6.03492">
        <ele>1354.61</ele>
        <time>2018-08-14T14:01:49Z</time>
      </trkpt>
      <trkpt lat="45.14651" lon="6.03488">
        <ele>1352.21</ele>
        <time>2018-08-14T14:02:00Z</time>
      </trkpt>
      <trkpt lat="45.14633" lon="6.03481">
        <ele>1347.31</ele>
        <time>2018-08-14T14:02:17Z</time>
      </trkpt>
      <trkpt lat="45.14615" lon="6.03481">
        <ele>1344.6</ele>
        <time>2018-08-14T14:02:30Z</time>
      </trkpt>
      <trkpt lat="45.14597" lon="6.03474">
        <ele>1342.47</ele>
        <time>2018-08-14T14:02:42Z</time>
      </trkpt>
      <trkpt lat="45.1458" lon="6.03464">
        <ele>1341.37</ele>
        <time>2018-08-14T14:02:56Z</time>
      </trkpt>
      <trkpt lat="45.14561" lon="6.03459">
        <ele>1340.13</ele>
        <time>2018-08-14T14:03:12Z</time>
      </trkpt>
      <trkpt lat="45.14544" lon="6.03448">
        <ele>1338.7</ele>
        <time>2018-08-14T14:03:24Z</time>
      </trkpt>
      <trkpt lat="45.14525" lon="6.03441">
        <ele>1335.97</ele>
        <time>2018-08-14T14:03:40Z</time>
      </trkpt>
      <trkpt lat="45.14507" lon="6.03428">
        <ele>1333.94</ele>
        <time>2018-08-14T14:03:56Z</time>
      </trkpt>
      <trkpt lat="45.14489" lon="6.03417">
        <ele>1333.79</ele>
        <time>2018-08-14T14:04:09Z</time>
      </trkpt>
      <trkpt lat="45.14471" lon="6.03403">
        <ele>1333.67</ele>
        <time>2018-08-14T14:04:22Z</time>
      </trkpt>
      <trkpt lat="45.14455" lon="6.03387">
        <ele>1332.2</ele>
        <time>2018-08-14T14:04:37Z</time>
      </trkpt>
      <trkpt lat="45.14442" lon="6.03369">
        <ele>1330.05</ele>
        <time>2018-08-14T14:04:52Z</time>
      </trkpt>
      <trkpt lat="45.14429" lon="6.03352">
        <ele>1327.7</ele>
        <time>2018-08-14T14:05:06Z</time>
      </trkpt>
      <trkpt lat="45.14417" lon="6.03332">
        <ele>1325.36</ele>
        <time>2018-08-14T14:05:23Z</time>
      </trkpt>
      <trkpt lat="45.14409" lon="6.03307">
        <ele>1323.44</ele>
        <time>2018-08-14T14:05:38Z</time>
      </trkpt>
      <trkpt lat="45.14403" lon="6.03282">
        <ele>1321.43</ele>
        <time>2018-08-14T14:05:56Z</time>
      </trkpt>
      <trkpt lat="45.14397" lon="6.03258">
        <ele>1320.21</ele>
        <time>2018-08-14T14:06:08Z</time>
      </trkpt>
      <trkpt lat="45.14393" lon="6.03231">
        <ele>1317.05</ele>
        <time>2018-08-14T14:06:23Z</time>
      </trkpt>
      <trkpt lat="45.14386" lon="6.03206">
        <ele>1315</ele>
        <time>2018-08-14T14:06:40Z</time>
      </trkpt>
      <trkpt lat="45.14379" lon="6.03182">
        <ele>1313.42</ele>
        <time>2018-08-14T14:06:53Z</time>
      </trkpt>
      <trkpt lat="45.14373" lon="6.03158">
        <ele>1312.21</ele>
        <time>2018-08-14T14:07:14Z</time>
      </trkpt>
      <trkpt lat="45.1437" lon="6.03132">
        <ele>1311.14</ele>
        <time>2018-08-14T14:07:25Z</time>
      </trkpt>
      <trkpt lat="45.1437" lon="6.03106">
        <ele>1309.29</ele>
        <time>2018-08-14T14:07:39Z</time>
      </trkpt>
      <trkpt lat="45.14378" lon="6.03083">
        <ele>1307.52</ele>
        <time>2018-08-14T14:07:54Z</time>
      </trkpt>
      <trkpt lat="45.1438" lon="6.03054">
        <ele>1306.11</ele>
        <time>2018-08-14T14:08:08Z</time>
      </trkpt>
      <trkpt lat="45.14377" lon="6.03029">
        <ele>1304.33</ele>
        <time>2018-08-14T14:08:20Z</time>
      </trkpt>
      <trkpt lat="45.14376" lon="6.03002">
        <ele>1302.78</ele>
        <time>2018-08-14T14:08:34Z</time>
      </trkpt>
      <trkpt lat="45.14374" lon="6.02976">
        <ele>1300.53</ele>
        <time>2018-08-14T14:08:50Z</time>
      </trkpt>
      <trkpt lat="45.14373" lon="6.0295">
        <ele>1299.09</ele>
        <time>2018-08-14T14:09:03Z</time>
      </trkpt>
      <trkpt lat="45.14377" lon="6.02924">
        <ele>1297.61</ele>
        <time>2018-08-14T14:09:19Z</time>
      </trkpt>
      <trkpt lat="45.14386" lon="6.02901">
        <ele>1296.78</ele>
        <time>2018-08-14T14:09:31Z</time>
      </trkpt>
      <trkpt lat="45.14384" lon="6.02875">
        <ele>1295.34</ele>
        <time>2018-08-14T14:09:44Z</time>
      </trkpt>
      <trkpt lat="45.14384" lon="6.02849">
        <ele>1293.94</ele>
        <time>2018-08-14T14:09:57Z</time>
      </trkpt>
      <trkpt lat="45.14395" lon="6.02828">
        <ele>1291.67</ele>
        <time>2018-08-14T14:10:11Z</time>
      </trkpt>
      <trkpt lat="45.14398" lon="6.02803">
        <ele>1289.27</ele>
        <time>2018-08-14T14:10:23Z</time>
      </trkpt>
      <trkpt lat="45.14385" lon="6.02784">
        <ele>1287.07</ele>
        <time>2018-08-14T14:10:38Z</time>
      </trkpt>
      <trkpt lat="45.14366" lon="6.02786">
        <ele>1286.1</ele>
        <time>2018-08-14T14:10:52Z</time>
      </trkpt>
      <trkpt lat="45.14346" lon="6.0279">
        <ele>1285.69</ele>
        <time>2018-08-14T14:11:08Z</time>
      </trkpt>
      <trkpt lat="45.14328" lon="6.02789">
        <ele>1286.26</ele>
        <time>2018-08-14T14:11:21Z</time>
      </trkpt>
      <trkpt lat="45.14308" lon="6.0279">
        <ele>1287.84</ele>
        <time>2018-08-14T14:11:36Z</time>
      </trkpt>
      <trkpt lat="45.1429" lon="6.02786">
        <ele>1287.84</ele>
        <time>2018-08-14T14:11:52Z</time>
      </trkpt>
      <trkpt lat="45.14251" lon="6.02795">
        <ele>1289.11</ele>
        <time>2018-08-14T14:12:22Z</time>
      </trkpt>
      <trkpt lat="45.14241" lon="6.02773">
        <ele>1267.69</ele>
        <time>2018-08-14T14:12:36Z</time>
      </trkpt>
      <trkpt lat="45.14223" lon="6.02781">
        <ele>1267.58</ele>
        <time>2018-08-14T14:12:49Z</time>
      </trkpt>
      <trkpt lat="45.14208" lon="6.02795">
        <ele>1264.81</ele>
        <time>2018-08-14T14:13:04Z</time>
      </trkpt>
    </trkseg>
  </trk>
</gpx>